<?xml version="1.0" encoding="UTF-8" standalone="no" ?>
<gpx xmlns="http://www.topografix.com/GPX/1/1" xmlns:xsi="http://www.w3.org/2001/XMLSchema-instance" xsi:schemaLocation="http://www.topografix.com/GPX/1/1 http://www.topografix.com/GPX/1/1/gpx.xsd" version="1.1" creator="VisuGPX - https://www.visugpx.com">
  <metadata>
    <name>Rando 1/2 journée Chatenois &lt;-&gt;Croix Boyon (Massif de la Serre)</name>
    <desc><![CDATA[Rando effectuée le 12 janvier 2015]]></desc>
  </metadata>
  <trk>
    <name><![CDATA[Chatenois 13 km 12 janv. 2015]]></name>
    <cmt><![CDATA[12 janv. 2015 08:55:22]]></cmt>
    <trkseg>
      <trkpt lat="47.14626" lon="5.55237">
        <ele>210</ele>
        <time>2015-01-12T07:55:23Z</time>
      </trkpt>
      <trkpt lat="47.14627" lon="5.55242">
        <ele>211</ele>
        <time>2015-01-12T07:55:31Z</time>
      </trkpt>
      <trkpt lat="47.1463" lon="5.55241">
        <ele>212</ele>
        <time>2015-01-12T07:55:50Z</time>
      </trkpt>
      <trkpt lat="47.14629" lon="5.55237">
        <ele>207</ele>
        <time>2015-01-12T07:57:08Z</time>
      </trkpt>
      <trkpt lat="47.14633" lon="5.55235">
        <ele>207</ele>
        <time>2015-01-12T07:57:43Z</time>
      </trkpt>
      <trkpt lat="47.14634" lon="5.55232">
        <ele>209</ele>
        <time>2015-01-12T08:00:33Z</time>
      </trkpt>
      <trkpt lat="47.14631" lon="5.55235">
        <ele>210</ele>
        <time>2015-01-12T08:02:38Z</time>
      </trkpt>
      <trkpt lat="47.1463" lon="5.55237">
        <ele>210</ele>
        <time>2015-01-12T08:03:11Z</time>
      </trkpt>
      <trkpt lat="47.14627" lon="5.55242">
        <ele>210</ele>
        <time>2015-01-12T08:03:19Z</time>
      </trkpt>
      <trkpt lat="47.14626" lon="5.55245">
        <ele>210</ele>
        <time>2015-01-12T08:03:24Z</time>
      </trkpt>
      <trkpt lat="47.14634" lon="5.55241">
        <ele>217</ele>
        <time>2015-01-12T08:03:45Z</time>
      </trkpt>
      <trkpt lat="47.14632" lon="5.55238">
        <ele>218</ele>
        <time>2015-01-12T08:04:06Z</time>
      </trkpt>
      <trkpt lat="47.14638" lon="5.5523">
        <ele>219</ele>
        <time>2015-01-12T08:05:32Z</time>
      </trkpt>
      <trkpt lat="47.14641" lon="5.55228">
        <ele>216</ele>
        <time>2015-01-12T08:05:44Z</time>
      </trkpt>
      <trkpt lat="47.14644" lon="5.55223">
        <ele>216</ele>
        <time>2015-01-12T08:05:52Z</time>
      </trkpt>
      <trkpt lat="47.14647" lon="5.55226">
        <ele>216</ele>
        <time>2015-01-12T08:05:55Z</time>
      </trkpt>
      <trkpt lat="47.14652" lon="5.55224">
        <ele>215</ele>
        <time>2015-01-12T08:06:00Z</time>
      </trkpt>
      <trkpt lat="47.14658" lon="5.55223">
        <ele>214</ele>
        <time>2015-01-12T08:06:05Z</time>
      </trkpt>
      <trkpt lat="47.14661" lon="5.55229">
        <ele>213</ele>
        <time>2015-01-12T08:06:10Z</time>
      </trkpt>
      <trkpt lat="47.14672" lon="5.55232">
        <ele>214</ele>
        <time>2015-01-12T08:06:18Z</time>
      </trkpt>
      <trkpt lat="47.14695" lon="5.55244">
        <ele>219</ele>
        <time>2015-01-12T08:06:37Z</time>
      </trkpt>
      <trkpt lat="47.147" lon="5.55242">
        <ele>220</ele>
        <time>2015-01-12T08:06:43Z</time>
      </trkpt>
      <trkpt lat="47.14713" lon="5.55246">
        <ele>219</ele>
        <time>2015-01-12T08:06:55Z</time>
      </trkpt>
      <trkpt lat="47.14723" lon="5.5525">
        <ele>218</ele>
        <time>2015-01-12T08:07:01Z</time>
      </trkpt>
      <trkpt lat="47.14733" lon="5.55253">
        <ele>218</ele>
        <time>2015-01-12T08:07:08Z</time>
      </trkpt>
      <trkpt lat="47.1478" lon="5.55246">
        <ele>218</ele>
        <time>2015-01-12T08:07:45Z</time>
      </trkpt>
      <trkpt lat="47.14795" lon="5.5523">
        <ele>220</ele>
        <time>2015-01-12T08:08:04Z</time>
      </trkpt>
      <trkpt lat="47.14816" lon="5.55203">
        <ele>218</ele>
        <time>2015-01-12T08:08:27Z</time>
      </trkpt>
      <trkpt lat="47.14822" lon="5.55191">
        <ele>218</ele>
        <time>2015-01-12T08:08:35Z</time>
      </trkpt>
      <trkpt lat="47.14829" lon="5.55182">
        <ele>219</ele>
        <time>2015-01-12T08:08:42Z</time>
      </trkpt>
      <trkpt lat="47.14855" lon="5.55163">
        <ele>219</ele>
        <time>2015-01-12T08:09:03Z</time>
      </trkpt>
      <trkpt lat="47.14864" lon="5.55164">
        <ele>219</ele>
        <time>2015-01-12T08:09:09Z</time>
      </trkpt>
      <trkpt lat="47.14884" lon="5.5516">
        <ele>219</ele>
        <time>2015-01-12T08:09:23Z</time>
      </trkpt>
      <trkpt lat="47.14892" lon="5.55154">
        <ele>219</ele>
        <time>2015-01-12T08:09:30Z</time>
      </trkpt>
      <trkpt lat="47.14898" lon="5.55145">
        <ele>221</ele>
        <time>2015-01-12T08:09:37Z</time>
      </trkpt>
      <trkpt lat="47.14916" lon="5.55112">
        <ele>221</ele>
        <time>2015-01-12T08:09:58Z</time>
      </trkpt>
      <trkpt lat="47.14921" lon="5.55101">
        <ele>222</ele>
        <time>2015-01-12T08:10:05Z</time>
      </trkpt>
      <trkpt lat="47.14933" lon="5.55068">
        <ele>222</ele>
        <time>2015-01-12T08:10:24Z</time>
      </trkpt>
      <trkpt lat="47.14939" lon="5.55054">
        <ele>221</ele>
        <time>2015-01-12T08:10:31Z</time>
      </trkpt>
      <trkpt lat="47.14941" lon="5.55047">
        <ele>221</ele>
        <time>2015-01-12T08:10:36Z</time>
      </trkpt>
      <trkpt lat="47.14945" lon="5.55042">
        <ele>221</ele>
        <time>2015-01-12T08:10:41Z</time>
      </trkpt>
      <trkpt lat="47.14958" lon="5.55018">
        <ele>221</ele>
        <time>2015-01-12T08:10:56Z</time>
      </trkpt>
      <trkpt lat="47.14968" lon="5.5501">
        <ele>221</ele>
        <time>2015-01-12T08:11:04Z</time>
      </trkpt>
      <trkpt lat="47.14979" lon="5.54999">
        <ele>222</ele>
        <time>2015-01-12T08:11:16Z</time>
      </trkpt>
      <trkpt lat="47.14983" lon="5.54986">
        <ele>219</ele>
        <time>2015-01-12T08:11:26Z</time>
      </trkpt>
      <trkpt lat="47.1499" lon="5.54975">
        <ele>219</ele>
        <time>2015-01-12T08:11:35Z</time>
      </trkpt>
      <trkpt lat="47.14998" lon="5.54966">
        <ele>220</ele>
        <time>2015-01-12T08:11:41Z</time>
      </trkpt>
      <trkpt lat="47.15005" lon="5.54956">
        <ele>219</ele>
        <time>2015-01-12T08:11:50Z</time>
      </trkpt>
      <trkpt lat="47.15016" lon="5.54938">
        <ele>220</ele>
        <time>2015-01-12T08:12:01Z</time>
      </trkpt>
      <trkpt lat="47.15018" lon="5.54925">
        <ele>221</ele>
        <time>2015-01-12T08:12:09Z</time>
      </trkpt>
      <trkpt lat="47.15022" lon="5.54921">
        <ele>221</ele>
        <time>2015-01-12T08:12:13Z</time>
      </trkpt>
      <trkpt lat="47.15026" lon="5.54917">
        <ele>220</ele>
        <time>2015-01-12T08:12:17Z</time>
      </trkpt>
      <trkpt lat="47.1503" lon="5.54911">
        <ele>221</ele>
        <time>2015-01-12T08:12:21Z</time>
      </trkpt>
      <trkpt lat="47.15059" lon="5.54897">
        <ele>226</ele>
        <time>2015-01-12T08:12:40Z</time>
      </trkpt>
      <trkpt lat="47.15064" lon="5.54898">
        <ele>226</ele>
        <time>2015-01-12T08:12:44Z</time>
      </trkpt>
      <trkpt lat="47.15088" lon="5.54921">
        <ele>227</ele>
        <time>2015-01-12T08:13:06Z</time>
      </trkpt>
      <trkpt lat="47.15111" lon="5.54943">
        <ele>231</ele>
        <time>2015-01-12T08:13:26Z</time>
      </trkpt>
      <trkpt lat="47.15136" lon="5.54961">
        <ele>230</ele>
        <time>2015-01-12T08:13:49Z</time>
      </trkpt>
      <trkpt lat="47.15145" lon="5.54965">
        <ele>230</ele>
        <time>2015-01-12T08:13:56Z</time>
      </trkpt>
      <trkpt lat="47.15165" lon="5.54977">
        <ele>233</ele>
        <time>2015-01-12T08:14:13Z</time>
      </trkpt>
      <trkpt lat="47.15188" lon="5.54982">
        <ele>233</ele>
        <time>2015-01-12T08:14:31Z</time>
      </trkpt>
      <trkpt lat="47.15207" lon="5.54979">
        <ele>235</ele>
        <time>2015-01-12T08:14:45Z</time>
      </trkpt>
      <trkpt lat="47.15222" lon="5.54981">
        <ele>235</ele>
        <time>2015-01-12T08:14:56Z</time>
      </trkpt>
      <trkpt lat="47.15236" lon="5.54977">
        <ele>236</ele>
        <time>2015-01-12T08:15:06Z</time>
      </trkpt>
      <trkpt lat="47.15269" lon="5.54965">
        <ele>242</ele>
        <time>2015-01-12T08:15:30Z</time>
      </trkpt>
      <trkpt lat="47.15284" lon="5.54957">
        <ele>242</ele>
        <time>2015-01-12T08:15:41Z</time>
      </trkpt>
      <trkpt lat="47.15304" lon="5.54933">
        <ele>238</ele>
        <time>2015-01-12T08:15:57Z</time>
      </trkpt>
      <trkpt lat="47.15309" lon="5.5493">
        <ele>238</ele>
        <time>2015-01-12T08:16:02Z</time>
      </trkpt>
      <trkpt lat="47.1532" lon="5.54914">
        <ele>237</ele>
        <time>2015-01-12T08:16:16Z</time>
      </trkpt>
      <trkpt lat="47.15325" lon="5.54911">
        <ele>237</ele>
        <time>2015-01-12T08:16:20Z</time>
      </trkpt>
      <trkpt lat="47.15335" lon="5.54905">
        <ele>236</ele>
        <time>2015-01-12T08:16:30Z</time>
      </trkpt>
      <trkpt lat="47.15354" lon="5.5488">
        <ele>240</ele>
        <time>2015-01-12T08:16:48Z</time>
      </trkpt>
      <trkpt lat="47.15365" lon="5.54865">
        <ele>240</ele>
        <time>2015-01-12T08:17:00Z</time>
      </trkpt>
      <trkpt lat="47.15373" lon="5.54854">
        <ele>238</ele>
        <time>2015-01-12T08:17:11Z</time>
      </trkpt>
      <trkpt lat="47.15385" lon="5.5484">
        <ele>238</ele>
        <time>2015-01-12T08:17:24Z</time>
      </trkpt>
      <trkpt lat="47.15388" lon="5.54835">
        <ele>237</ele>
        <time>2015-01-12T08:17:29Z</time>
      </trkpt>
      <trkpt lat="47.15393" lon="5.54831">
        <ele>238</ele>
        <time>2015-01-12T08:17:33Z</time>
      </trkpt>
      <trkpt lat="47.15417" lon="5.54817">
        <ele>243</ele>
        <time>2015-01-12T08:17:52Z</time>
      </trkpt>
      <trkpt lat="47.15427" lon="5.54813">
        <ele>243</ele>
        <time>2015-01-12T08:18:00Z</time>
      </trkpt>
      <trkpt lat="47.15438" lon="5.54811">
        <ele>242</ele>
        <time>2015-01-12T08:18:08Z</time>
      </trkpt>
      <trkpt lat="47.15443" lon="5.54812">
        <ele>242</ele>
        <time>2015-01-12T08:18:11Z</time>
      </trkpt>
      <trkpt lat="47.15453" lon="5.5481">
        <ele>242</ele>
        <time>2015-01-12T08:18:19Z</time>
      </trkpt>
      <trkpt lat="47.15463" lon="5.54809">
        <ele>242</ele>
        <time>2015-01-12T08:18:27Z</time>
      </trkpt>
      <trkpt lat="47.15468" lon="5.54809">
        <ele>243</ele>
        <time>2015-01-12T08:18:32Z</time>
      </trkpt>
      <trkpt lat="47.15473" lon="5.54811">
        <ele>244</ele>
        <time>2015-01-12T08:18:35Z</time>
      </trkpt>
      <trkpt lat="47.15478" lon="5.5481">
        <ele>244</ele>
        <time>2015-01-12T08:18:40Z</time>
      </trkpt>
      <trkpt lat="47.15482" lon="5.54807">
        <ele>245</ele>
        <time>2015-01-12T08:18:44Z</time>
      </trkpt>
      <trkpt lat="47.15498" lon="5.54804">
        <ele>245</ele>
        <time>2015-01-12T08:18:59Z</time>
      </trkpt>
      <trkpt lat="47.15509" lon="5.54803">
        <ele>245</ele>
        <time>2015-01-12T08:19:06Z</time>
      </trkpt>
      <trkpt lat="47.15529" lon="5.54802">
        <ele>246</ele>
        <time>2015-01-12T08:19:21Z</time>
      </trkpt>
      <trkpt lat="47.15539" lon="5.54797">
        <ele>245</ele>
        <time>2015-01-12T08:19:29Z</time>
      </trkpt>
      <trkpt lat="47.15554" lon="5.54794">
        <ele>244</ele>
        <time>2015-01-12T08:19:43Z</time>
      </trkpt>
      <trkpt lat="47.15579" lon="5.54794">
        <ele>243</ele>
        <time>2015-01-12T08:19:59Z</time>
      </trkpt>
      <trkpt lat="47.15587" lon="5.54792">
        <ele>244</ele>
        <time>2015-01-12T08:20:04Z</time>
      </trkpt>
      <trkpt lat="47.15591" lon="5.5479">
        <ele>243</ele>
        <time>2015-01-12T08:20:10Z</time>
      </trkpt>
      <trkpt lat="47.15596" lon="5.54789">
        <ele>243</ele>
        <time>2015-01-12T08:20:14Z</time>
      </trkpt>
      <trkpt lat="47.15614" lon="5.5478">
        <ele>245</ele>
        <time>2015-01-12T08:20:30Z</time>
      </trkpt>
      <trkpt lat="47.15637" lon="5.54769">
        <ele>245</ele>
        <time>2015-01-12T08:20:46Z</time>
      </trkpt>
      <trkpt lat="47.15656" lon="5.54755">
        <ele>246</ele>
        <time>2015-01-12T08:21:03Z</time>
      </trkpt>
      <trkpt lat="47.1566" lon="5.54755">
        <ele>246</ele>
        <time>2015-01-12T08:21:07Z</time>
      </trkpt>
      <trkpt lat="47.15663" lon="5.54748">
        <ele>246</ele>
        <time>2015-01-12T08:21:15Z</time>
      </trkpt>
      <trkpt lat="47.15702" lon="5.54725">
        <ele>245</ele>
        <time>2015-01-12T08:21:47Z</time>
      </trkpt>
      <trkpt lat="47.15707" lon="5.54723">
        <ele>245</ele>
        <time>2015-01-12T08:21:51Z</time>
      </trkpt>
      <trkpt lat="47.15726" lon="5.54702">
        <ele>245</ele>
        <time>2015-01-12T08:22:10Z</time>
      </trkpt>
      <trkpt lat="47.15728" lon="5.54694">
        <ele>246</ele>
        <time>2015-01-12T08:22:14Z</time>
      </trkpt>
      <trkpt lat="47.15756" lon="5.54674">
        <ele>251</ele>
        <time>2015-01-12T08:22:35Z</time>
      </trkpt>
      <trkpt lat="47.1576" lon="5.54671">
        <ele>252</ele>
        <time>2015-01-12T08:22:39Z</time>
      </trkpt>
      <trkpt lat="47.15765" lon="5.5467">
        <ele>251</ele>
        <time>2015-01-12T08:22:44Z</time>
      </trkpt>
      <trkpt lat="47.1577" lon="5.54669">
        <ele>251</ele>
        <time>2015-01-12T08:22:47Z</time>
      </trkpt>
      <trkpt lat="47.1578" lon="5.54667">
        <ele>250</ele>
        <time>2015-01-12T08:22:55Z</time>
      </trkpt>
      <trkpt lat="47.15828" lon="5.54648">
        <ele>250</ele>
        <time>2015-01-12T08:23:27Z</time>
      </trkpt>
      <trkpt lat="47.15832" lon="5.54645">
        <ele>250</ele>
        <time>2015-01-12T08:23:31Z</time>
      </trkpt>
      <trkpt lat="47.15836" lon="5.54643">
        <ele>251</ele>
        <time>2015-01-12T08:23:36Z</time>
      </trkpt>
      <trkpt lat="47.15849" lon="5.54642">
        <ele>253</ele>
        <time>2015-01-12T08:23:44Z</time>
      </trkpt>
      <trkpt lat="47.15852" lon="5.54642">
        <ele>253</ele>
        <time>2015-01-12T08:23:46Z</time>
      </trkpt>
      <trkpt lat="47.15862" lon="5.54638">
        <ele>253</ele>
        <time>2015-01-12T08:23:53Z</time>
      </trkpt>
      <trkpt lat="47.15872" lon="5.5463">
        <ele>253</ele>
        <time>2015-01-12T08:24:02Z</time>
      </trkpt>
      <trkpt lat="47.15883" lon="5.54615">
        <ele>253</ele>
        <time>2015-01-12T08:24:14Z</time>
      </trkpt>
      <trkpt lat="47.15887" lon="5.5461">
        <ele>253</ele>
        <time>2015-01-12T08:24:20Z</time>
      </trkpt>
      <trkpt lat="47.15894" lon="5.54599">
        <ele>253</ele>
        <time>2015-01-12T08:24:29Z</time>
      </trkpt>
      <trkpt lat="47.15899" lon="5.546">
        <ele>253</ele>
        <time>2015-01-12T08:24:33Z</time>
      </trkpt>
      <trkpt lat="47.15903" lon="5.54596">
        <ele>253</ele>
        <time>2015-01-12T08:24:37Z</time>
      </trkpt>
      <trkpt lat="47.15919" lon="5.54578">
        <ele>252</ele>
        <time>2015-01-12T08:24:51Z</time>
      </trkpt>
      <trkpt lat="47.15925" lon="5.54568">
        <ele>252</ele>
        <time>2015-01-12T08:24:57Z</time>
      </trkpt>
      <trkpt lat="47.15928" lon="5.54561">
        <ele>252</ele>
        <time>2015-01-12T08:25:02Z</time>
      </trkpt>
      <trkpt lat="47.15939" lon="5.54545">
        <ele>251</ele>
        <time>2015-01-12T08:25:13Z</time>
      </trkpt>
      <trkpt lat="47.15943" lon="5.54531">
        <ele>249</ele>
        <time>2015-01-12T08:25:21Z</time>
      </trkpt>
      <trkpt lat="47.15945" lon="5.54523">
        <ele>250</ele>
        <time>2015-01-12T08:25:27Z</time>
      </trkpt>
      <trkpt lat="47.15947" lon="5.54517">
        <ele>250</ele>
        <time>2015-01-12T08:25:30Z</time>
      </trkpt>
      <trkpt lat="47.1595" lon="5.54511">
        <ele>250</ele>
        <time>2015-01-12T08:25:33Z</time>
      </trkpt>
      <trkpt lat="47.15954" lon="5.54505">
        <ele>250</ele>
        <time>2015-01-12T08:25:37Z</time>
      </trkpt>
      <trkpt lat="47.15957" lon="5.54499">
        <ele>251</ele>
        <time>2015-01-12T08:25:41Z</time>
      </trkpt>
      <trkpt lat="47.15966" lon="5.54491">
        <ele>251</ele>
        <time>2015-01-12T08:25:48Z</time>
      </trkpt>
      <trkpt lat="47.15971" lon="5.54487">
        <ele>251</ele>
        <time>2015-01-12T08:25:52Z</time>
      </trkpt>
      <trkpt lat="47.15974" lon="5.54481">
        <ele>251</ele>
        <time>2015-01-12T08:25:56Z</time>
      </trkpt>
      <trkpt lat="47.15984" lon="5.54465">
        <ele>252</ele>
        <time>2015-01-12T08:26:08Z</time>
      </trkpt>
      <trkpt lat="47.16001" lon="5.54448">
        <ele>254</ele>
        <time>2015-01-12T08:26:24Z</time>
      </trkpt>
      <trkpt lat="47.1602" lon="5.54434">
        <ele>253</ele>
        <time>2015-01-12T08:26:40Z</time>
      </trkpt>
      <trkpt lat="47.16033" lon="5.5442">
        <ele>254</ele>
        <time>2015-01-12T08:26:54Z</time>
      </trkpt>
      <trkpt lat="47.16036" lon="5.54415">
        <ele>255</ele>
        <time>2015-01-12T08:26:59Z</time>
      </trkpt>
      <trkpt lat="47.16042" lon="5.54412">
        <ele>255</ele>
        <time>2015-01-12T08:27:03Z</time>
      </trkpt>
      <trkpt lat="47.16048" lon="5.5441">
        <ele>256</ele>
        <time>2015-01-12T08:27:06Z</time>
      </trkpt>
      <trkpt lat="47.16056" lon="5.54402">
        <ele>255</ele>
        <time>2015-01-12T08:27:13Z</time>
      </trkpt>
      <trkpt lat="47.1606" lon="5.54397">
        <ele>256</ele>
        <time>2015-01-12T08:27:18Z</time>
      </trkpt>
      <trkpt lat="47.16066" lon="5.54395">
        <ele>256</ele>
        <time>2015-01-12T08:27:22Z</time>
      </trkpt>
      <trkpt lat="47.16071" lon="5.54393">
        <ele>255</ele>
        <time>2015-01-12T08:27:26Z</time>
      </trkpt>
      <trkpt lat="47.16086" lon="5.54376">
        <ele>255</ele>
        <time>2015-01-12T08:27:40Z</time>
      </trkpt>
      <trkpt lat="47.16094" lon="5.54369">
        <ele>255</ele>
        <time>2015-01-12T08:27:47Z</time>
      </trkpt>
      <trkpt lat="47.16103" lon="5.54345">
        <ele>259</ele>
        <time>2015-01-12T08:28:10Z</time>
      </trkpt>
      <trkpt lat="47.161" lon="5.54346">
        <ele>261</ele>
        <time>2015-01-12T08:29:01Z</time>
      </trkpt>
      <trkpt lat="47.16103" lon="5.54346">
        <ele>264</ele>
        <time>2015-01-12T08:30:17Z</time>
      </trkpt>
      <trkpt lat="47.16106" lon="5.54334">
        <ele>264</ele>
        <time>2015-01-12T08:30:27Z</time>
      </trkpt>
      <trkpt lat="47.16109" lon="5.54305">
        <ele>264</ele>
        <time>2015-01-12T08:30:42Z</time>
      </trkpt>
      <trkpt lat="47.16109" lon="5.5429">
        <ele>264</ele>
        <time>2015-01-12T08:30:49Z</time>
      </trkpt>
      <trkpt lat="47.16113" lon="5.54278">
        <ele>264</ele>
        <time>2015-01-12T08:30:59Z</time>
      </trkpt>
      <trkpt lat="47.16116" lon="5.54266">
        <ele>264</ele>
        <time>2015-01-12T08:31:07Z</time>
      </trkpt>
      <trkpt lat="47.16116" lon="5.54252">
        <ele>265</ele>
        <time>2015-01-12T08:31:18Z</time>
      </trkpt>
      <trkpt lat="47.16116" lon="5.54225">
        <ele>266</ele>
        <time>2015-01-12T08:31:32Z</time>
      </trkpt>
      <trkpt lat="47.16116" lon="5.54197">
        <ele>265</ele>
        <time>2015-01-12T08:31:53Z</time>
      </trkpt>
      <trkpt lat="47.16123" lon="5.54142">
        <ele>269</ele>
        <time>2015-01-12T08:32:30Z</time>
      </trkpt>
      <trkpt lat="47.16115" lon="5.54116">
        <ele>270</ele>
        <time>2015-01-12T08:32:46Z</time>
      </trkpt>
      <trkpt lat="47.16116" lon="5.54075">
        <ele>272</ele>
        <time>2015-01-12T08:33:09Z</time>
      </trkpt>
      <trkpt lat="47.16128" lon="5.54053">
        <ele>273</ele>
        <time>2015-01-12T08:33:26Z</time>
      </trkpt>
      <trkpt lat="47.16144" lon="5.54039">
        <ele>277</ele>
        <time>2015-01-12T08:33:49Z</time>
      </trkpt>
      <trkpt lat="47.16153" lon="5.54033">
        <ele>278</ele>
        <time>2015-01-12T08:33:59Z</time>
      </trkpt>
      <trkpt lat="47.16176" lon="5.53989">
        <ele>282</ele>
        <time>2015-01-12T08:34:37Z</time>
      </trkpt>
      <trkpt lat="47.16196" lon="5.53959">
        <ele>284</ele>
        <time>2015-01-12T08:35:04Z</time>
      </trkpt>
      <trkpt lat="47.16215" lon="5.53927">
        <ele>283</ele>
        <time>2015-01-12T08:35:29Z</time>
      </trkpt>
      <trkpt lat="47.16221" lon="5.53916">
        <ele>284</ele>
        <time>2015-01-12T08:35:36Z</time>
      </trkpt>
      <trkpt lat="47.16224" lon="5.53901">
        <ele>285</ele>
        <time>2015-01-12T08:35:42Z</time>
      </trkpt>
      <trkpt lat="47.16234" lon="5.53878">
        <ele>286</ele>
        <time>2015-01-12T08:36:01Z</time>
      </trkpt>
      <trkpt lat="47.16243" lon="5.53873">
        <ele>286</ele>
        <time>2015-01-12T08:36:10Z</time>
      </trkpt>
      <trkpt lat="47.16249" lon="5.53863">
        <ele>287</ele>
        <time>2015-01-12T08:36:20Z</time>
      </trkpt>
      <trkpt lat="47.16256" lon="5.53854">
        <ele>286</ele>
        <time>2015-01-12T08:36:31Z</time>
      </trkpt>
      <trkpt lat="47.16263" lon="5.53846">
        <ele>287</ele>
        <time>2015-01-12T08:36:41Z</time>
      </trkpt>
      <trkpt lat="47.16271" lon="5.53837">
        <ele>286</ele>
        <time>2015-01-12T08:36:51Z</time>
      </trkpt>
      <trkpt lat="47.1628" lon="5.53812">
        <ele>284</ele>
        <time>2015-01-12T08:37:13Z</time>
      </trkpt>
      <trkpt lat="47.16301" lon="5.53788">
        <ele>288</ele>
        <time>2015-01-12T08:38:34Z</time>
      </trkpt>
      <trkpt lat="47.16308" lon="5.53779">
        <ele>288</ele>
        <time>2015-01-12T08:38:42Z</time>
      </trkpt>
      <trkpt lat="47.16317" lon="5.53776">
        <ele>288</ele>
        <time>2015-01-12T08:38:51Z</time>
      </trkpt>
      <trkpt lat="47.16327" lon="5.53774">
        <ele>287</ele>
        <time>2015-01-12T08:39:01Z</time>
      </trkpt>
      <trkpt lat="47.16335" lon="5.53768">
        <ele>289</ele>
        <time>2015-01-12T08:39:09Z</time>
      </trkpt>
      <trkpt lat="47.16345" lon="5.53769">
        <ele>289</ele>
        <time>2015-01-12T08:39:20Z</time>
      </trkpt>
      <trkpt lat="47.16364" lon="5.53771">
        <ele>292</ele>
        <time>2015-01-12T08:39:37Z</time>
      </trkpt>
      <trkpt lat="47.16372" lon="5.53764">
        <ele>293</ele>
        <time>2015-01-12T08:39:50Z</time>
      </trkpt>
      <trkpt lat="47.16391" lon="5.53762">
        <ele>295</ele>
        <time>2015-01-12T08:40:07Z</time>
      </trkpt>
      <trkpt lat="47.1641" lon="5.53756">
        <ele>296</ele>
        <time>2015-01-12T08:40:26Z</time>
      </trkpt>
      <trkpt lat="47.16418" lon="5.53747">
        <ele>296</ele>
        <time>2015-01-12T08:40:36Z</time>
      </trkpt>
      <trkpt lat="47.16445" lon="5.53738">
        <ele>299</ele>
        <time>2015-01-12T08:41:04Z</time>
      </trkpt>
      <trkpt lat="47.16453" lon="5.5373">
        <ele>299</ele>
        <time>2015-01-12T08:41:12Z</time>
      </trkpt>
      <trkpt lat="47.16467" lon="5.53711">
        <ele>300</ele>
        <time>2015-01-12T08:41:29Z</time>
      </trkpt>
      <trkpt lat="47.16472" lon="5.537">
        <ele>303</ele>
        <time>2015-01-12T08:41:36Z</time>
      </trkpt>
      <trkpt lat="47.16479" lon="5.53689">
        <ele>303</ele>
        <time>2015-01-12T08:41:44Z</time>
      </trkpt>
      <trkpt lat="47.16485" lon="5.53679">
        <ele>304</ele>
        <time>2015-01-12T08:41:51Z</time>
      </trkpt>
      <trkpt lat="47.16506" lon="5.53651">
        <ele>306</ele>
        <time>2015-01-12T08:42:19Z</time>
      </trkpt>
      <trkpt lat="47.16531" lon="5.53608">
        <ele>305</ele>
        <time>2015-01-12T08:42:57Z</time>
      </trkpt>
      <trkpt lat="47.16546" lon="5.53589">
        <ele>303</ele>
        <time>2015-01-12T08:43:16Z</time>
      </trkpt>
      <trkpt lat="47.16549" lon="5.53576">
        <ele>303</ele>
        <time>2015-01-12T08:43:26Z</time>
      </trkpt>
      <trkpt lat="47.16567" lon="5.53543">
        <ele>305</ele>
        <time>2015-01-12T08:43:55Z</time>
      </trkpt>
      <trkpt lat="47.16572" lon="5.53532">
        <ele>305</ele>
        <time>2015-01-12T08:44:08Z</time>
      </trkpt>
      <trkpt lat="47.16581" lon="5.53525">
        <ele>305</ele>
        <time>2015-01-12T08:44:17Z</time>
      </trkpt>
      <trkpt lat="47.16583" lon="5.53536">
        <ele>305</ele>
        <time>2015-01-12T08:45:28Z</time>
      </trkpt>
      <trkpt lat="47.16589" lon="5.53547">
        <ele>305</ele>
        <time>2015-01-12T08:45:36Z</time>
      </trkpt>
      <trkpt lat="47.16598" lon="5.53552">
        <ele>305</ele>
        <time>2015-01-12T08:45:45Z</time>
      </trkpt>
      <trkpt lat="47.16612" lon="5.53568">
        <ele>306</ele>
        <time>2015-01-12T08:46:03Z</time>
      </trkpt>
      <trkpt lat="47.16631" lon="5.53598">
        <ele>311</ele>
        <time>2015-01-12T08:46:34Z</time>
      </trkpt>
      <trkpt lat="47.16651" lon="5.53627">
        <ele>318</ele>
        <time>2015-01-12T08:47:09Z</time>
      </trkpt>
      <trkpt lat="47.16673" lon="5.53652">
        <ele>321</ele>
        <time>2015-01-12T08:47:40Z</time>
      </trkpt>
      <trkpt lat="47.1669" lon="5.53683">
        <ele>325</ele>
        <time>2015-01-12T08:48:16Z</time>
      </trkpt>
      <trkpt lat="47.16696" lon="5.53693">
        <ele>325</ele>
        <time>2015-01-12T08:48:26Z</time>
      </trkpt>
      <trkpt lat="47.16702" lon="5.53702">
        <ele>327</ele>
        <time>2015-01-12T08:48:37Z</time>
      </trkpt>
      <trkpt lat="47.16707" lon="5.53714">
        <ele>326</ele>
        <time>2015-01-12T08:48:47Z</time>
      </trkpt>
      <trkpt lat="47.16722" lon="5.53734">
        <ele>328</ele>
        <time>2015-01-12T08:49:17Z</time>
      </trkpt>
      <trkpt lat="47.16729" lon="5.53744">
        <ele>327</ele>
        <time>2015-01-12T08:49:24Z</time>
      </trkpt>
      <trkpt lat="47.16733" lon="5.53756">
        <ele>329</ele>
        <time>2015-01-12T08:49:32Z</time>
      </trkpt>
      <trkpt lat="47.16756" lon="5.53783">
        <ele>337</ele>
        <time>2015-01-12T08:50:06Z</time>
      </trkpt>
      <trkpt lat="47.16758" lon="5.53797">
        <ele>337</ele>
        <time>2015-01-12T08:50:19Z</time>
      </trkpt>
      <trkpt lat="47.16771" lon="5.53816">
        <ele>336</ele>
        <time>2015-01-12T08:50:38Z</time>
      </trkpt>
      <trkpt lat="47.16779" lon="5.53826">
        <ele>336</ele>
        <time>2015-01-12T08:50:47Z</time>
      </trkpt>
      <trkpt lat="47.16801" lon="5.53869">
        <ele>342</ele>
        <time>2015-01-12T08:51:21Z</time>
      </trkpt>
      <trkpt lat="47.16804" lon="5.53882">
        <ele>343</ele>
        <time>2015-01-12T08:51:28Z</time>
      </trkpt>
      <trkpt lat="47.16813" lon="5.53889">
        <ele>344</ele>
        <time>2015-01-12T08:51:39Z</time>
      </trkpt>
      <trkpt lat="47.16822" lon="5.5389">
        <ele>344</ele>
        <time>2015-01-12T08:51:48Z</time>
      </trkpt>
      <trkpt lat="47.16827" lon="5.53902">
        <ele>345</ele>
        <time>2015-01-12T08:51:59Z</time>
      </trkpt>
      <trkpt lat="47.16844" lon="5.53915">
        <ele>345</ele>
        <time>2015-01-12T08:52:22Z</time>
      </trkpt>
      <trkpt lat="47.16852" lon="5.53923">
        <ele>346</ele>
        <time>2015-01-12T08:52:30Z</time>
      </trkpt>
      <trkpt lat="47.16857" lon="5.53934">
        <ele>345</ele>
        <time>2015-01-12T08:52:42Z</time>
      </trkpt>
      <trkpt lat="47.16865" lon="5.53941">
        <ele>345</ele>
        <time>2015-01-12T08:52:55Z</time>
      </trkpt>
      <trkpt lat="47.16872" lon="5.5395">
        <ele>345</ele>
        <time>2015-01-12T08:53:03Z</time>
      </trkpt>
      <trkpt lat="47.16878" lon="5.5396">
        <ele>345</ele>
        <time>2015-01-12T08:53:12Z</time>
      </trkpt>
      <trkpt lat="47.1689" lon="5.53981">
        <ele>345</ele>
        <time>2015-01-12T08:53:32Z</time>
      </trkpt>
      <trkpt lat="47.16894" lon="5.53992">
        <ele>346</ele>
        <time>2015-01-12T08:54:20Z</time>
      </trkpt>
      <trkpt lat="47.16901" lon="5.53988">
        <ele>346</ele>
        <time>2015-01-12T08:54:38Z</time>
      </trkpt>
      <trkpt lat="47.16902" lon="5.53984">
        <ele>352</ele>
        <time>2015-01-12T08:55:35Z</time>
      </trkpt>
      <trkpt lat="47.169" lon="5.53979">
        <ele>352</ele>
        <time>2015-01-12T08:55:47Z</time>
      </trkpt>
      <trkpt lat="47.16893" lon="5.53984">
        <ele>350</ele>
        <time>2015-01-12T08:56:57Z</time>
      </trkpt>
      <trkpt lat="47.16891" lon="5.53986">
        <ele>358</ele>
        <time>2015-01-12T09:01:59Z</time>
      </trkpt>
      <trkpt lat="47.16893" lon="5.54">
        <ele>352</ele>
        <time>2015-01-12T09:03:38Z</time>
      </trkpt>
      <trkpt lat="47.16917" lon="5.54024">
        <ele>346</ele>
        <time>2015-01-12T09:04:03Z</time>
      </trkpt>
      <trkpt lat="47.16922" lon="5.54036">
        <ele>345</ele>
        <time>2015-01-12T09:04:12Z</time>
      </trkpt>
      <trkpt lat="47.16935" lon="5.54057">
        <ele>343</ele>
        <time>2015-01-12T09:04:30Z</time>
      </trkpt>
      <trkpt lat="47.16949" lon="5.54075">
        <ele>342</ele>
        <time>2015-01-12T09:04:46Z</time>
      </trkpt>
      <trkpt lat="47.16962" lon="5.54097">
        <ele>341</ele>
        <time>2015-01-12T09:05:01Z</time>
      </trkpt>
      <trkpt lat="47.16959" lon="5.54112">
        <ele>340</ele>
        <time>2015-01-12T09:05:15Z</time>
      </trkpt>
      <trkpt lat="47.16967" lon="5.54121">
        <ele>337</ele>
        <time>2015-01-12T09:05:32Z</time>
      </trkpt>
      <trkpt lat="47.16995" lon="5.54131">
        <ele>331</ele>
        <time>2015-01-12T09:05:58Z</time>
      </trkpt>
      <trkpt lat="47.17023" lon="5.54167">
        <ele>323</ele>
        <time>2015-01-12T09:06:43Z</time>
      </trkpt>
      <trkpt lat="47.17035" lon="5.54188">
        <ele>318</ele>
        <time>2015-01-12T09:07:04Z</time>
      </trkpt>
      <trkpt lat="47.17036" lon="5.54202">
        <ele>315</ele>
        <time>2015-01-12T09:07:15Z</time>
      </trkpt>
      <trkpt lat="47.17043" lon="5.5421">
        <ele>314</ele>
        <time>2015-01-12T09:07:24Z</time>
      </trkpt>
      <trkpt lat="47.1704" lon="5.54223">
        <ele>311</ele>
        <time>2015-01-12T09:07:39Z</time>
      </trkpt>
      <trkpt lat="47.1704" lon="5.54232">
        <ele>309</ele>
        <time>2015-01-12T09:07:53Z</time>
      </trkpt>
      <trkpt lat="47.17052" lon="5.54229">
        <ele>308</ele>
        <time>2015-01-12T09:08:11Z</time>
      </trkpt>
      <trkpt lat="47.17061" lon="5.54225">
        <ele>308</ele>
        <time>2015-01-12T09:08:20Z</time>
      </trkpt>
      <trkpt lat="47.17049" lon="5.54212">
        <ele>308</ele>
        <time>2015-01-12T09:08:36Z</time>
      </trkpt>
      <trkpt lat="47.17052" lon="5.54222">
        <ele>317</ele>
        <time>2015-01-12T09:09:18Z</time>
      </trkpt>
      <trkpt lat="47.17061" lon="5.54228">
        <ele>318</ele>
        <time>2015-01-12T09:09:27Z</time>
      </trkpt>
      <trkpt lat="47.17083" lon="5.54258">
        <ele>326</ele>
        <time>2015-01-12T09:10:19Z</time>
      </trkpt>
      <trkpt lat="47.17089" lon="5.54268">
        <ele>326</ele>
        <time>2015-01-12T09:10:34Z</time>
      </trkpt>
      <trkpt lat="47.17093" lon="5.54281">
        <ele>325</ele>
        <time>2015-01-12T09:10:41Z</time>
      </trkpt>
      <trkpt lat="47.17095" lon="5.54294">
        <ele>323</ele>
        <time>2015-01-12T09:10:46Z</time>
      </trkpt>
      <trkpt lat="47.17102" lon="5.54305">
        <ele>323</ele>
        <time>2015-01-12T09:10:57Z</time>
      </trkpt>
      <trkpt lat="47.17111" lon="5.54311">
        <ele>323</ele>
        <time>2015-01-12T09:11:07Z</time>
      </trkpt>
      <trkpt lat="47.17131" lon="5.54341">
        <ele>329</ele>
        <time>2015-01-12T09:11:49Z</time>
      </trkpt>
      <trkpt lat="47.17137" lon="5.54352">
        <ele>331</ele>
        <time>2015-01-12T09:12:01Z</time>
      </trkpt>
      <trkpt lat="47.17146" lon="5.54355">
        <ele>332</ele>
        <time>2015-01-12T09:12:14Z</time>
      </trkpt>
      <trkpt lat="47.17152" lon="5.54365">
        <ele>333</ele>
        <time>2015-01-12T09:12:25Z</time>
      </trkpt>
      <trkpt lat="47.17159" lon="5.54375">
        <ele>333</ele>
        <time>2015-01-12T09:12:35Z</time>
      </trkpt>
      <trkpt lat="47.17168" lon="5.544">
        <ele>332</ele>
        <time>2015-01-12T09:12:52Z</time>
      </trkpt>
      <trkpt lat="47.17181" lon="5.5442">
        <ele>334</ele>
        <time>2015-01-12T09:13:14Z</time>
      </trkpt>
      <trkpt lat="47.1719" lon="5.54423">
        <ele>337</ele>
        <time>2015-01-12T09:13:25Z</time>
      </trkpt>
      <trkpt lat="47.17205" lon="5.5444">
        <ele>340</ele>
        <time>2015-01-12T09:13:45Z</time>
      </trkpt>
      <trkpt lat="47.17214" lon="5.54442">
        <ele>342</ele>
        <time>2015-01-12T09:14:03Z</time>
      </trkpt>
      <trkpt lat="47.17221" lon="5.54428">
        <ele>344</ele>
        <time>2015-01-12T09:14:29Z</time>
      </trkpt>
      <trkpt lat="47.17223" lon="5.54415">
        <ele>344</ele>
        <time>2015-01-12T09:14:40Z</time>
      </trkpt>
      <trkpt lat="47.17242" lon="5.54384">
        <ele>347</ele>
        <time>2015-01-12T09:14:58Z</time>
      </trkpt>
      <trkpt lat="47.17248" lon="5.54373">
        <ele>347</ele>
        <time>2015-01-12T09:15:08Z</time>
      </trkpt>
      <trkpt lat="47.17255" lon="5.54364">
        <ele>345</ele>
        <time>2015-01-12T09:15:19Z</time>
      </trkpt>
      <trkpt lat="47.17259" lon="5.5435">
        <ele>344</ele>
        <time>2015-01-12T09:15:28Z</time>
      </trkpt>
      <trkpt lat="47.17266" lon="5.5434">
        <ele>343</ele>
        <time>2015-01-12T09:16:44Z</time>
      </trkpt>
      <trkpt lat="47.17275" lon="5.54337">
        <ele>342</ele>
        <time>2015-01-12T09:16:52Z</time>
      </trkpt>
      <trkpt lat="47.17284" lon="5.54332">
        <ele>340</ele>
        <time>2015-01-12T09:17:02Z</time>
      </trkpt>
      <trkpt lat="47.17291" lon="5.54322">
        <ele>340</ele>
        <time>2015-01-12T09:17:13Z</time>
      </trkpt>
      <trkpt lat="47.173" lon="5.5432">
        <ele>341</ele>
        <time>2015-01-12T09:17:19Z</time>
      </trkpt>
      <trkpt lat="47.17303" lon="5.54306">
        <ele>341</ele>
        <time>2015-01-12T09:17:27Z</time>
      </trkpt>
      <trkpt lat="47.17302" lon="5.54293">
        <ele>338</ele>
        <time>2015-01-12T09:17:44Z</time>
      </trkpt>
      <trkpt lat="47.17303" lon="5.5428">
        <ele>338</ele>
        <time>2015-01-12T09:17:54Z</time>
      </trkpt>
      <trkpt lat="47.17314" lon="5.54257">
        <ele>336</ele>
        <time>2015-01-12T09:18:11Z</time>
      </trkpt>
      <trkpt lat="47.17339" lon="5.54211">
        <ele>341</ele>
        <time>2015-01-12T09:18:46Z</time>
      </trkpt>
      <trkpt lat="47.17348" lon="5.54204">
        <ele>342</ele>
        <time>2015-01-12T09:18:53Z</time>
      </trkpt>
      <trkpt lat="47.17357" lon="5.54202">
        <ele>341</ele>
        <time>2015-01-12T09:19:00Z</time>
      </trkpt>
      <trkpt lat="47.17367" lon="5.54197">
        <ele>342</ele>
        <time>2015-01-12T09:19:07Z</time>
      </trkpt>
      <trkpt lat="47.17379" lon="5.54177">
        <ele>343</ele>
        <time>2015-01-12T09:19:22Z</time>
      </trkpt>
      <trkpt lat="47.17383" lon="5.54172">
        <ele>343</ele>
        <time>2015-01-12T09:19:26Z</time>
      </trkpt>
      <trkpt lat="47.17391" lon="5.54163">
        <ele>343</ele>
        <time>2015-01-12T09:19:36Z</time>
      </trkpt>
      <trkpt lat="47.174" lon="5.54156">
        <ele>343</ele>
        <time>2015-01-12T09:19:45Z</time>
      </trkpt>
      <trkpt lat="47.17405" lon="5.54155">
        <ele>343</ele>
        <time>2015-01-12T09:19:50Z</time>
      </trkpt>
      <trkpt lat="47.17409" lon="5.54152">
        <ele>342</ele>
        <time>2015-01-12T09:19:54Z</time>
      </trkpt>
      <trkpt lat="47.17417" lon="5.54147">
        <ele>343</ele>
        <time>2015-01-12T09:20:01Z</time>
      </trkpt>
      <trkpt lat="47.17423" lon="5.54145">
        <ele>344</ele>
        <time>2015-01-12T09:20:05Z</time>
      </trkpt>
      <trkpt lat="47.17429" lon="5.54144">
        <ele>344</ele>
        <time>2015-01-12T09:20:10Z</time>
      </trkpt>
      <trkpt lat="47.17432" lon="5.54138">
        <ele>344</ele>
        <time>2015-01-12T09:20:16Z</time>
      </trkpt>
      <trkpt lat="47.17437" lon="5.54135">
        <ele>346</ele>
        <time>2015-01-12T09:20:22Z</time>
      </trkpt>
      <trkpt lat="47.17441" lon="5.54138">
        <ele>347</ele>
        <time>2015-01-12T09:20:26Z</time>
      </trkpt>
      <trkpt lat="47.17452" lon="5.54141">
        <ele>348</ele>
        <time>2015-01-12T09:20:34Z</time>
      </trkpt>
      <trkpt lat="47.17469" lon="5.54151">
        <ele>348</ele>
        <time>2015-01-12T09:20:48Z</time>
      </trkpt>
      <trkpt lat="47.17497" lon="5.54138">
        <ele>345</ele>
        <time>2015-01-12T09:21:14Z</time>
      </trkpt>
      <trkpt lat="47.17514" lon="5.54128">
        <ele>343</ele>
        <time>2015-01-12T09:21:27Z</time>
      </trkpt>
      <trkpt lat="47.17523" lon="5.54134">
        <ele>342</ele>
        <time>2015-01-12T09:21:32Z</time>
      </trkpt>
      <trkpt lat="47.17536" lon="5.54153">
        <ele>341</ele>
        <time>2015-01-12T09:21:45Z</time>
      </trkpt>
      <trkpt lat="47.17541" lon="5.54165">
        <ele>341</ele>
        <time>2015-01-12T09:21:53Z</time>
      </trkpt>
      <trkpt lat="47.17557" lon="5.5418">
        <ele>342</ele>
        <time>2015-01-12T09:22:08Z</time>
      </trkpt>
      <trkpt lat="47.17566" lon="5.54182">
        <ele>343</ele>
        <time>2015-01-12T09:22:22Z</time>
      </trkpt>
      <trkpt lat="47.17592" lon="5.54161">
        <ele>340</ele>
        <time>2015-01-12T09:22:57Z</time>
      </trkpt>
      <trkpt lat="47.17602" lon="5.5416">
        <ele>341</ele>
        <time>2015-01-12T09:23:08Z</time>
      </trkpt>
      <trkpt lat="47.17611" lon="5.54158">
        <ele>341</ele>
        <time>2015-01-12T09:23:17Z</time>
      </trkpt>
      <trkpt lat="47.17619" lon="5.5415">
        <ele>340</ele>
        <time>2015-01-12T09:23:28Z</time>
      </trkpt>
      <trkpt lat="47.17623" lon="5.54137">
        <ele>340</ele>
        <time>2015-01-12T09:23:37Z</time>
      </trkpt>
      <trkpt lat="47.17629" lon="5.54127">
        <ele>341</ele>
        <time>2015-01-12T09:23:48Z</time>
      </trkpt>
      <trkpt lat="47.17631" lon="5.54099">
        <ele>344</ele>
        <time>2015-01-12T09:24:10Z</time>
      </trkpt>
      <trkpt lat="47.17637" lon="5.5409">
        <ele>345</ele>
        <time>2015-01-12T09:24:20Z</time>
      </trkpt>
      <trkpt lat="47.17652" lon="5.54069">
        <ele>343</ele>
        <time>2015-01-12T09:24:38Z</time>
      </trkpt>
      <trkpt lat="47.17664" lon="5.54049">
        <ele>343</ele>
        <time>2015-01-12T09:24:52Z</time>
      </trkpt>
      <trkpt lat="47.17671" lon="5.5404">
        <ele>344</ele>
        <time>2015-01-12T09:25:03Z</time>
      </trkpt>
      <trkpt lat="47.1768" lon="5.54029">
        <ele>346</ele>
        <time>2015-01-12T09:25:13Z</time>
      </trkpt>
      <trkpt lat="47.17692" lon="5.54015">
        <ele>346</ele>
        <time>2015-01-12T09:25:27Z</time>
      </trkpt>
      <trkpt lat="47.177" lon="5.54007">
        <ele>346</ele>
        <time>2015-01-12T09:25:38Z</time>
      </trkpt>
      <trkpt lat="47.17712" lon="5.53992">
        <ele>346</ele>
        <time>2015-01-12T09:25:51Z</time>
      </trkpt>
      <trkpt lat="47.17741" lon="5.53946">
        <ele>351</ele>
        <time>2015-01-12T09:26:26Z</time>
      </trkpt>
      <trkpt lat="47.17754" lon="5.53926">
        <ele>351</ele>
        <time>2015-01-12T09:26:40Z</time>
      </trkpt>
      <trkpt lat="47.17758" lon="5.53913">
        <ele>353</ele>
        <time>2015-01-12T09:26:49Z</time>
      </trkpt>
      <trkpt lat="47.17774" lon="5.53899">
        <ele>353</ele>
        <time>2015-01-12T09:27:04Z</time>
      </trkpt>
      <trkpt lat="47.17781" lon="5.5389">
        <ele>353</ele>
        <time>2015-01-12T09:27:10Z</time>
      </trkpt>
      <trkpt lat="47.17786" lon="5.53878">
        <ele>353</ele>
        <time>2015-01-12T09:27:17Z</time>
      </trkpt>
      <trkpt lat="47.1779" lon="5.53865">
        <ele>352</ele>
        <time>2015-01-12T09:27:31Z</time>
      </trkpt>
      <trkpt lat="47.17799" lon="5.5386">
        <ele>352</ele>
        <time>2015-01-12T09:27:39Z</time>
      </trkpt>
      <trkpt lat="47.17805" lon="5.5385">
        <ele>352</ele>
        <time>2015-01-12T09:27:49Z</time>
      </trkpt>
      <trkpt lat="47.17821" lon="5.53833">
        <ele>354</ele>
        <time>2015-01-12T09:28:07Z</time>
      </trkpt>
      <trkpt lat="47.17826" lon="5.53822">
        <ele>353</ele>
        <time>2015-01-12T09:28:17Z</time>
      </trkpt>
      <trkpt lat="47.17842" lon="5.53808">
        <ele>354</ele>
        <time>2015-01-12T09:28:31Z</time>
      </trkpt>
      <trkpt lat="47.1785" lon="5.53785">
        <ele>356</ele>
        <time>2015-01-12T09:29:07Z</time>
      </trkpt>
      <trkpt lat="47.17858" lon="5.53777">
        <ele>359</ele>
        <time>2015-01-12T09:29:15Z</time>
      </trkpt>
      <trkpt lat="47.17867" lon="5.53774">
        <ele>360</ele>
        <time>2015-01-12T09:29:24Z</time>
      </trkpt>
      <trkpt lat="47.17873" lon="5.53763">
        <ele>361</ele>
        <time>2015-01-12T09:29:36Z</time>
      </trkpt>
      <trkpt lat="47.17874" lon="5.5375">
        <ele>363</ele>
        <time>2015-01-12T09:29:47Z</time>
      </trkpt>
      <trkpt lat="47.17869" lon="5.53743">
        <ele>366</ele>
        <time>2015-01-12T09:30:08Z</time>
      </trkpt>
      <trkpt lat="47.1786" lon="5.53735">
        <ele>367</ele>
        <time>2015-01-12T09:31:23Z</time>
      </trkpt>
      <trkpt lat="47.17851" lon="5.5373">
        <ele>367</ele>
        <time>2015-01-12T09:31:39Z</time>
      </trkpt>
      <trkpt lat="47.17842" lon="5.53725">
        <ele>367</ele>
        <time>2015-01-12T09:31:48Z</time>
      </trkpt>
      <trkpt lat="47.17817" lon="5.537">
        <ele>368</ele>
        <time>2015-01-12T09:32:11Z</time>
      </trkpt>
      <trkpt lat="47.17809" lon="5.53694">
        <ele>368</ele>
        <time>2015-01-12T09:32:18Z</time>
      </trkpt>
      <trkpt lat="47.17804" lon="5.5369">
        <ele>367</ele>
        <time>2015-01-12T09:32:22Z</time>
      </trkpt>
      <trkpt lat="47.17801" lon="5.53686">
        <ele>367</ele>
        <time>2015-01-12T09:32:25Z</time>
      </trkpt>
      <trkpt lat="47.17796" lon="5.53683">
        <ele>367</ele>
        <time>2015-01-12T09:32:29Z</time>
      </trkpt>
      <trkpt lat="47.17792" lon="5.53678">
        <ele>367</ele>
        <time>2015-01-12T09:32:34Z</time>
      </trkpt>
      <trkpt lat="47.17782" lon="5.53667">
        <ele>364</ele>
        <time>2015-01-12T09:32:49Z</time>
      </trkpt>
      <trkpt lat="47.17766" lon="5.53656">
        <ele>363</ele>
        <time>2015-01-12T09:33:02Z</time>
      </trkpt>
      <trkpt lat="47.17753" lon="5.53642">
        <ele>360</ele>
        <time>2015-01-12T09:33:14Z</time>
      </trkpt>
      <trkpt lat="47.1774" lon="5.53629">
        <ele>360</ele>
        <time>2015-01-12T09:33:25Z</time>
      </trkpt>
      <trkpt lat="47.17699" lon="5.53587">
        <ele>358</ele>
        <time>2015-01-12T09:34:02Z</time>
      </trkpt>
      <trkpt lat="47.17695" lon="5.53583">
        <ele>358</ele>
        <time>2015-01-12T09:34:07Z</time>
      </trkpt>
      <trkpt lat="47.17691" lon="5.53578">
        <ele>360</ele>
        <time>2015-01-12T09:34:12Z</time>
      </trkpt>
      <trkpt lat="47.17676" lon="5.5356">
        <ele>360</ele>
        <time>2015-01-12T09:34:30Z</time>
      </trkpt>
      <trkpt lat="47.17672" lon="5.53554">
        <ele>359</ele>
        <time>2015-01-12T09:34:34Z</time>
      </trkpt>
      <trkpt lat="47.17669" lon="5.53549">
        <ele>359</ele>
        <time>2015-01-12T09:34:38Z</time>
      </trkpt>
      <trkpt lat="47.17665" lon="5.53534">
        <ele>359</ele>
        <time>2015-01-12T09:34:46Z</time>
      </trkpt>
      <trkpt lat="47.1766" lon="5.53529">
        <ele>359</ele>
        <time>2015-01-12T09:34:52Z</time>
      </trkpt>
      <trkpt lat="47.17646" lon="5.53506">
        <ele>362</ele>
        <time>2015-01-12T09:35:10Z</time>
      </trkpt>
      <trkpt lat="47.17637" lon="5.53488">
        <ele>361</ele>
        <time>2015-01-12T09:35:25Z</time>
      </trkpt>
      <trkpt lat="47.17635" lon="5.53481">
        <ele>362</ele>
        <time>2015-01-12T09:35:29Z</time>
      </trkpt>
      <trkpt lat="47.17629" lon="5.5347">
        <ele>362</ele>
        <time>2015-01-12T09:35:37Z</time>
      </trkpt>
      <trkpt lat="47.17621" lon="5.53459">
        <ele>360</ele>
        <time>2015-01-12T09:35:48Z</time>
      </trkpt>
      <trkpt lat="47.17593" lon="5.534">
        <ele>359</ele>
        <time>2015-01-12T09:36:23Z</time>
      </trkpt>
      <trkpt lat="47.17584" lon="5.53376">
        <ele>359</ele>
        <time>2015-01-12T09:36:37Z</time>
      </trkpt>
      <trkpt lat="47.17566" lon="5.53323">
        <ele>359</ele>
        <time>2015-01-12T09:37:09Z</time>
      </trkpt>
      <trkpt lat="47.17558" lon="5.5327">
        <ele>361</ele>
        <time>2015-01-12T09:37:37Z</time>
      </trkpt>
      <trkpt lat="47.17553" lon="5.53203">
        <ele>358</ele>
        <time>2015-01-12T09:38:12Z</time>
      </trkpt>
      <trkpt lat="47.17548" lon="5.53182">
        <ele>357</ele>
        <time>2015-01-12T09:38:24Z</time>
      </trkpt>
      <trkpt lat="47.17544" lon="5.53176">
        <ele>356</ele>
        <time>2015-01-12T09:38:29Z</time>
      </trkpt>
      <trkpt lat="47.17543" lon="5.53168">
        <ele>356</ele>
        <time>2015-01-12T09:38:33Z</time>
      </trkpt>
      <trkpt lat="47.17541" lon="5.53162">
        <ele>356</ele>
        <time>2015-01-12T09:38:37Z</time>
      </trkpt>
      <trkpt lat="47.1754" lon="5.53153">
        <ele>356</ele>
        <time>2015-01-12T09:38:42Z</time>
      </trkpt>
      <trkpt lat="47.17538" lon="5.53147">
        <ele>356</ele>
        <time>2015-01-12T09:38:46Z</time>
      </trkpt>
      <trkpt lat="47.17531" lon="5.53114">
        <ele>357</ele>
        <time>2015-01-12T09:39:05Z</time>
      </trkpt>
      <trkpt lat="47.17523" lon="5.53058">
        <ele>356</ele>
        <time>2015-01-12T09:39:36Z</time>
      </trkpt>
      <trkpt lat="47.17521" lon="5.53051">
        <ele>356</ele>
        <time>2015-01-12T09:39:40Z</time>
      </trkpt>
      <trkpt lat="47.1752" lon="5.53047">
        <ele>356</ele>
        <time>2015-01-12T09:39:47Z</time>
      </trkpt>
      <trkpt lat="47.17522" lon="5.5304">
        <ele>351</ele>
        <time>2015-01-12T09:40:24Z</time>
      </trkpt>
      <trkpt lat="47.17521" lon="5.53031">
        <ele>350</ele>
        <time>2015-01-12T09:40:29Z</time>
      </trkpt>
      <trkpt lat="47.1752" lon="5.53024">
        <ele>351</ele>
        <time>2015-01-12T09:40:33Z</time>
      </trkpt>
      <trkpt lat="47.17527" lon="5.52998">
        <ele>352</ele>
        <time>2015-01-12T09:40:49Z</time>
      </trkpt>
      <trkpt lat="47.17541" lon="5.52945">
        <ele>350</ele>
        <time>2015-01-12T09:41:22Z</time>
      </trkpt>
      <trkpt lat="47.17554" lon="5.52908">
        <ele>349</ele>
        <time>2015-01-12T09:41:44Z</time>
      </trkpt>
      <trkpt lat="47.17552" lon="5.52894">
        <ele>347</ele>
        <time>2015-01-12T09:41:53Z</time>
      </trkpt>
      <trkpt lat="47.17552" lon="5.52881">
        <ele>347</ele>
        <time>2015-01-12T09:42:01Z</time>
      </trkpt>
      <trkpt lat="47.17552" lon="5.52867">
        <ele>347</ele>
        <time>2015-01-12T09:42:09Z</time>
      </trkpt>
      <trkpt lat="47.17553" lon="5.52853">
        <ele>347</ele>
        <time>2015-01-12T09:42:17Z</time>
      </trkpt>
      <trkpt lat="47.17558" lon="5.5284">
        <ele>347</ele>
        <time>2015-01-12T09:42:24Z</time>
      </trkpt>
      <trkpt lat="47.17561" lon="5.52828">
        <ele>347</ele>
        <time>2015-01-12T09:42:31Z</time>
      </trkpt>
      <trkpt lat="47.17575" lon="5.52811">
        <ele>346</ele>
        <time>2015-01-12T09:42:46Z</time>
      </trkpt>
      <trkpt lat="47.17584" lon="5.52808">
        <ele>346</ele>
        <time>2015-01-12T09:42:53Z</time>
      </trkpt>
      <trkpt lat="47.1759" lon="5.52797">
        <ele>346</ele>
        <time>2015-01-12T09:43:00Z</time>
      </trkpt>
      <trkpt lat="47.17597" lon="5.52786">
        <ele>345</ele>
        <time>2015-01-12T09:43:09Z</time>
      </trkpt>
      <trkpt lat="47.17599" lon="5.52772">
        <ele>345</ele>
        <time>2015-01-12T09:43:16Z</time>
      </trkpt>
      <trkpt lat="47.17617" lon="5.52739">
        <ele>346</ele>
        <time>2015-01-12T09:43:36Z</time>
      </trkpt>
      <trkpt lat="47.17615" lon="5.52725">
        <ele>346</ele>
        <time>2015-01-12T09:43:44Z</time>
      </trkpt>
      <trkpt lat="47.1763" lon="5.52673">
        <ele>342</ele>
        <time>2015-01-12T09:44:20Z</time>
      </trkpt>
      <trkpt lat="47.17634" lon="5.52659">
        <ele>341</ele>
        <time>2015-01-12T09:44:29Z</time>
      </trkpt>
      <trkpt lat="47.17632" lon="5.52645">
        <ele>341</ele>
        <time>2015-01-12T09:44:37Z</time>
      </trkpt>
      <trkpt lat="47.17634" lon="5.52631">
        <ele>342</ele>
        <time>2015-01-12T09:44:45Z</time>
      </trkpt>
      <trkpt lat="47.17637" lon="5.52619">
        <ele>342</ele>
        <time>2015-01-12T09:44:54Z</time>
      </trkpt>
      <trkpt lat="47.17636" lon="5.52605">
        <ele>341</ele>
        <time>2015-01-12T09:45:03Z</time>
      </trkpt>
      <trkpt lat="47.17641" lon="5.52578">
        <ele>339</ele>
        <time>2015-01-12T09:45:23Z</time>
      </trkpt>
      <trkpt lat="47.1765" lon="5.52553">
        <ele>339</ele>
        <time>2015-01-12T09:45:42Z</time>
      </trkpt>
      <trkpt lat="47.17667" lon="5.52503">
        <ele>336</ele>
        <time>2015-01-12T09:46:17Z</time>
      </trkpt>
      <trkpt lat="47.17672" lon="5.52492">
        <ele>337</ele>
        <time>2015-01-12T09:46:27Z</time>
      </trkpt>
      <trkpt lat="47.17687" lon="5.52457">
        <ele>339</ele>
        <time>2015-01-12T09:46:53Z</time>
      </trkpt>
      <trkpt lat="47.17693" lon="5.52447">
        <ele>339</ele>
        <time>2015-01-12T09:47:04Z</time>
      </trkpt>
      <trkpt lat="47.17695" lon="5.52433">
        <ele>338</ele>
        <time>2015-01-12T09:47:13Z</time>
      </trkpt>
      <trkpt lat="47.17693" lon="5.52392">
        <ele>338</ele>
        <time>2015-01-12T09:47:38Z</time>
      </trkpt>
      <trkpt lat="47.17712" lon="5.52343">
        <ele>336</ele>
        <time>2015-01-12T09:48:10Z</time>
      </trkpt>
      <trkpt lat="47.17717" lon="5.52331">
        <ele>336</ele>
        <time>2015-01-12T09:48:18Z</time>
      </trkpt>
      <trkpt lat="47.17724" lon="5.52305">
        <ele>336</ele>
        <time>2015-01-12T09:48:35Z</time>
      </trkpt>
      <trkpt lat="47.17722" lon="5.5229">
        <ele>335</ele>
        <time>2015-01-12T09:48:44Z</time>
      </trkpt>
      <trkpt lat="47.17725" lon="5.52278">
        <ele>335</ele>
        <time>2015-01-12T09:48:53Z</time>
      </trkpt>
      <trkpt lat="47.17736" lon="5.52255">
        <ele>333</ele>
        <time>2015-01-12T09:49:08Z</time>
      </trkpt>
      <trkpt lat="47.17733" lon="5.52227">
        <ele>331</ele>
        <time>2015-01-12T09:49:25Z</time>
      </trkpt>
      <trkpt lat="47.1774" lon="5.52201">
        <ele>329</ele>
        <time>2015-01-12T09:49:41Z</time>
      </trkpt>
      <trkpt lat="47.17753" lon="5.52181">
        <ele>329</ele>
        <time>2015-01-12T09:49:59Z</time>
      </trkpt>
      <trkpt lat="47.17771" lon="5.52131">
        <ele>327</ele>
        <time>2015-01-12T09:50:34Z</time>
      </trkpt>
      <trkpt lat="47.17789" lon="5.52078">
        <ele>328</ele>
        <time>2015-01-12T09:51:04Z</time>
      </trkpt>
      <trkpt lat="47.17794" lon="5.52067">
        <ele>328</ele>
        <time>2015-01-12T09:51:13Z</time>
      </trkpt>
      <trkpt lat="47.17803" lon="5.52063">
        <ele>327</ele>
        <time>2015-01-12T09:51:23Z</time>
      </trkpt>
      <trkpt lat="47.17811" lon="5.52053">
        <ele>328</ele>
        <time>2015-01-12T09:51:36Z</time>
      </trkpt>
      <trkpt lat="47.17815" lon="5.5204">
        <ele>328</ele>
        <time>2015-01-12T09:51:44Z</time>
      </trkpt>
      <trkpt lat="47.17822" lon="5.5203">
        <ele>326</ele>
        <time>2015-01-12T09:51:51Z</time>
      </trkpt>
      <trkpt lat="47.1783" lon="5.52025">
        <ele>326</ele>
        <time>2015-01-12T09:51:59Z</time>
      </trkpt>
      <trkpt lat="47.17832" lon="5.52011">
        <ele>325</ele>
        <time>2015-01-12T09:52:10Z</time>
      </trkpt>
      <trkpt lat="47.17832" lon="5.51981">
        <ele>326</ele>
        <time>2015-01-12T09:53:11Z</time>
      </trkpt>
      <trkpt lat="47.17827" lon="5.5194">
        <ele>334</ele>
        <time>2015-01-12T09:53:42Z</time>
      </trkpt>
      <trkpt lat="47.17827" lon="5.51925">
        <ele>336</ele>
        <time>2015-01-12T09:53:48Z</time>
      </trkpt>
      <trkpt lat="47.17831" lon="5.51913">
        <ele>337</ele>
        <time>2015-01-12T09:53:56Z</time>
      </trkpt>
      <trkpt lat="47.17832" lon="5.51899">
        <ele>338</ele>
        <time>2015-01-12T09:54:04Z</time>
      </trkpt>
      <trkpt lat="47.17831" lon="5.51884">
        <ele>339</ele>
        <time>2015-01-12T09:54:12Z</time>
      </trkpt>
      <trkpt lat="47.17824" lon="5.51875">
        <ele>341</ele>
        <time>2015-01-12T09:54:19Z</time>
      </trkpt>
      <trkpt lat="47.17816" lon="5.51867">
        <ele>342</ele>
        <time>2015-01-12T09:54:28Z</time>
      </trkpt>
      <trkpt lat="47.1779" lon="5.51848">
        <ele>343</ele>
        <time>2015-01-12T09:54:49Z</time>
      </trkpt>
      <trkpt lat="47.17783" lon="5.51839">
        <ele>344</ele>
        <time>2015-01-12T09:54:57Z</time>
      </trkpt>
      <trkpt lat="47.17775" lon="5.51833">
        <ele>344</ele>
        <time>2015-01-12T09:55:06Z</time>
      </trkpt>
      <trkpt lat="47.17758" lon="5.5182">
        <ele>344</ele>
        <time>2015-01-12T09:55:25Z</time>
      </trkpt>
      <trkpt lat="47.17728" lon="5.51782">
        <ele>345</ele>
        <time>2015-01-12T09:56:00Z</time>
      </trkpt>
      <trkpt lat="47.17721" lon="5.51773">
        <ele>346</ele>
        <time>2015-01-12T09:56:06Z</time>
      </trkpt>
      <trkpt lat="47.17688" lon="5.51747">
        <ele>344</ele>
        <time>2015-01-12T09:56:35Z</time>
      </trkpt>
      <trkpt lat="47.1768" lon="5.51738">
        <ele>344</ele>
        <time>2015-01-12T09:56:43Z</time>
      </trkpt>
      <trkpt lat="47.17672" lon="5.5173">
        <ele>345</ele>
        <time>2015-01-12T09:56:51Z</time>
      </trkpt>
      <trkpt lat="47.17663" lon="5.51722">
        <ele>345</ele>
        <time>2015-01-12T09:57:00Z</time>
      </trkpt>
      <trkpt lat="47.17656" lon="5.51714">
        <ele>344</ele>
        <time>2015-01-12T09:57:08Z</time>
      </trkpt>
      <trkpt lat="47.17651" lon="5.51702">
        <ele>344</ele>
        <time>2015-01-12T09:57:16Z</time>
      </trkpt>
      <trkpt lat="47.17643" lon="5.51694">
        <ele>343</ele>
        <time>2015-01-12T09:57:26Z</time>
      </trkpt>
      <trkpt lat="47.17612" lon="5.51659">
        <ele>341</ele>
        <time>2015-01-12T09:58:00Z</time>
      </trkpt>
      <trkpt lat="47.17603" lon="5.51654">
        <ele>340</ele>
        <time>2015-01-12T09:58:07Z</time>
      </trkpt>
      <trkpt lat="47.17556" lon="5.51664">
        <ele>336</ele>
        <time>2015-01-12T09:58:45Z</time>
      </trkpt>
      <trkpt lat="47.17517" lon="5.51668">
        <ele>332</ele>
        <time>2015-01-12T09:59:16Z</time>
      </trkpt>
      <trkpt lat="47.17483" lon="5.51696">
        <ele>329</ele>
        <time>2015-01-12T09:59:49Z</time>
      </trkpt>
      <trkpt lat="47.17474" lon="5.51693">
        <ele>328</ele>
        <time>2015-01-12T09:59:58Z</time>
      </trkpt>
      <trkpt lat="47.17446" lon="5.51688">
        <ele>326</ele>
        <time>2015-01-12T10:00:19Z</time>
      </trkpt>
      <trkpt lat="47.17437" lon="5.51685">
        <ele>324</ele>
        <time>2015-01-12T10:00:27Z</time>
      </trkpt>
      <trkpt lat="47.17427" lon="5.5168">
        <ele>324</ele>
        <time>2015-01-12T10:00:35Z</time>
      </trkpt>
      <trkpt lat="47.17423" lon="5.51677">
        <ele>324</ele>
        <time>2015-01-12T10:00:39Z</time>
      </trkpt>
      <trkpt lat="47.17419" lon="5.51672">
        <ele>324</ele>
        <time>2015-01-12T10:00:44Z</time>
      </trkpt>
      <trkpt lat="47.1741" lon="5.51667">
        <ele>325</ele>
        <time>2015-01-12T10:00:53Z</time>
      </trkpt>
      <trkpt lat="47.17404" lon="5.51666">
        <ele>324</ele>
        <time>2015-01-12T10:00:57Z</time>
      </trkpt>
      <trkpt lat="47.17379" lon="5.51641">
        <ele>319</ele>
        <time>2015-01-12T10:01:29Z</time>
      </trkpt>
      <trkpt lat="47.17366" lon="5.51624">
        <ele>318</ele>
        <time>2015-01-12T10:01:39Z</time>
      </trkpt>
      <trkpt lat="47.17348" lon="5.51607">
        <ele>318</ele>
        <time>2015-01-12T10:01:53Z</time>
      </trkpt>
      <trkpt lat="47.17338" lon="5.51603">
        <ele>318</ele>
        <time>2015-01-12T10:02:01Z</time>
      </trkpt>
      <trkpt lat="47.17309" lon="5.51613">
        <ele>311</ele>
        <time>2015-01-12T10:02:34Z</time>
      </trkpt>
      <trkpt lat="47.17272" lon="5.51596">
        <ele>307</ele>
        <time>2015-01-12T10:02:59Z</time>
      </trkpt>
      <trkpt lat="47.17264" lon="5.51589">
        <ele>307</ele>
        <time>2015-01-12T10:03:05Z</time>
      </trkpt>
      <trkpt lat="47.17237" lon="5.51574">
        <ele>305</ele>
        <time>2015-01-12T10:03:33Z</time>
      </trkpt>
      <trkpt lat="47.17234" lon="5.51573">
        <ele>303</ele>
        <time>2015-01-12T10:03:40Z</time>
      </trkpt>
      <trkpt lat="47.17227" lon="5.51556">
        <ele>297</ele>
        <time>2015-01-12T10:04:07Z</time>
      </trkpt>
      <trkpt lat="47.17212" lon="5.51523">
        <ele>295</ele>
        <time>2015-01-12T10:04:25Z</time>
      </trkpt>
      <trkpt lat="47.17205" lon="5.51512">
        <ele>295</ele>
        <time>2015-01-12T10:04:30Z</time>
      </trkpt>
      <trkpt lat="47.17198" lon="5.51503">
        <ele>297</ele>
        <time>2015-01-12T10:04:36Z</time>
      </trkpt>
      <trkpt lat="47.17192" lon="5.5149">
        <ele>298</ele>
        <time>2015-01-12T10:04:44Z</time>
      </trkpt>
      <trkpt lat="47.17183" lon="5.51466">
        <ele>298</ele>
        <time>2015-01-12T10:05:04Z</time>
      </trkpt>
      <trkpt lat="47.1718" lon="5.51452">
        <ele>296</ele>
        <time>2015-01-12T10:05:11Z</time>
      </trkpt>
      <trkpt lat="47.17175" lon="5.5144">
        <ele>296</ele>
        <time>2015-01-12T10:05:18Z</time>
      </trkpt>
      <trkpt lat="47.17166" lon="5.51432">
        <ele>295</ele>
        <time>2015-01-12T10:05:26Z</time>
      </trkpt>
      <trkpt lat="47.17142" lon="5.51438">
        <ele>293</ele>
        <time>2015-01-12T10:05:44Z</time>
      </trkpt>
      <trkpt lat="47.17132" lon="5.51444">
        <ele>293</ele>
        <time>2015-01-12T10:05:52Z</time>
      </trkpt>
      <trkpt lat="47.17118" lon="5.51453">
        <ele>293</ele>
        <time>2015-01-12T10:06:05Z</time>
      </trkpt>
      <trkpt lat="47.17108" lon="5.51452">
        <ele>292</ele>
        <time>2015-01-12T10:06:14Z</time>
      </trkpt>
      <trkpt lat="47.17103" lon="5.51451">
        <ele>292</ele>
        <time>2015-01-12T10:06:17Z</time>
      </trkpt>
      <trkpt lat="47.17067" lon="5.51436">
        <ele>293</ele>
        <time>2015-01-12T10:06:43Z</time>
      </trkpt>
      <trkpt lat="47.17027" lon="5.51445">
        <ele>291</ele>
        <time>2015-01-12T10:07:14Z</time>
      </trkpt>
      <trkpt lat="47.17018" lon="5.51449">
        <ele>291</ele>
        <time>2015-01-12T10:07:21Z</time>
      </trkpt>
      <trkpt lat="47.17014" lon="5.51452">
        <ele>290</ele>
        <time>2015-01-12T10:07:25Z</time>
      </trkpt>
      <trkpt lat="47.16973" lon="5.51483">
        <ele>290</ele>
        <time>2015-01-12T10:07:59Z</time>
      </trkpt>
      <trkpt lat="47.16966" lon="5.5149">
        <ele>290</ele>
        <time>2015-01-12T10:08:05Z</time>
      </trkpt>
      <trkpt lat="47.16958" lon="5.51498">
        <ele>292</ele>
        <time>2015-01-12T10:08:15Z</time>
      </trkpt>
      <trkpt lat="47.16926" lon="5.51554">
        <ele>291</ele>
        <time>2015-01-12T10:08:49Z</time>
      </trkpt>
      <trkpt lat="47.16914" lon="5.51579">
        <ele>291</ele>
        <time>2015-01-12T10:09:02Z</time>
      </trkpt>
      <trkpt lat="47.169" lon="5.51607">
        <ele>290</ele>
        <time>2015-01-12T10:09:23Z</time>
      </trkpt>
      <trkpt lat="47.1688" lon="5.51614">
        <ele>291</ele>
        <time>2015-01-12T10:09:41Z</time>
      </trkpt>
      <trkpt lat="47.1685" lon="5.51613">
        <ele>294</ele>
        <time>2015-01-12T10:10:05Z</time>
      </trkpt>
      <trkpt lat="47.16846" lon="5.51617">
        <ele>294</ele>
        <time>2015-01-12T10:10:11Z</time>
      </trkpt>
      <trkpt lat="47.16841" lon="5.51618">
        <ele>295</ele>
        <time>2015-01-12T10:10:17Z</time>
      </trkpt>
      <trkpt lat="47.16837" lon="5.51617">
        <ele>295</ele>
        <time>2015-01-12T10:10:21Z</time>
      </trkpt>
      <trkpt lat="47.16802" lon="5.51625">
        <ele>292</ele>
        <time>2015-01-12T10:10:44Z</time>
      </trkpt>
      <trkpt lat="47.16793" lon="5.51629">
        <ele>292</ele>
        <time>2015-01-12T10:10:50Z</time>
      </trkpt>
      <trkpt lat="47.16783" lon="5.51632">
        <ele>293</ele>
        <time>2015-01-12T10:10:57Z</time>
      </trkpt>
      <trkpt lat="47.16746" lon="5.51646">
        <ele>294</ele>
        <time>2015-01-12T10:11:28Z</time>
      </trkpt>
      <trkpt lat="47.16697" lon="5.51648">
        <ele>290</ele>
        <time>2015-01-12T10:12:04Z</time>
      </trkpt>
      <trkpt lat="47.16664" lon="5.51651">
        <ele>283</ele>
        <time>2015-01-12T10:12:33Z</time>
      </trkpt>
      <trkpt lat="47.16658" lon="5.51652">
        <ele>283</ele>
        <time>2015-01-12T10:12:36Z</time>
      </trkpt>
      <trkpt lat="47.16647" lon="5.51654">
        <ele>283</ele>
        <time>2015-01-12T10:12:41Z</time>
      </trkpt>
      <trkpt lat="47.16621" lon="5.51652">
        <ele>282</ele>
        <time>2015-01-12T10:13:05Z</time>
      </trkpt>
      <trkpt lat="47.16591" lon="5.5166">
        <ele>284</ele>
        <time>2015-01-12T10:13:23Z</time>
      </trkpt>
      <trkpt lat="47.16543" lon="5.51664">
        <ele>283</ele>
        <time>2015-01-12T10:13:58Z</time>
      </trkpt>
      <trkpt lat="47.16495" lon="5.51661">
        <ele>284</ele>
        <time>2015-01-12T10:14:30Z</time>
      </trkpt>
      <trkpt lat="47.16457" lon="5.51666">
        <ele>286</ele>
        <time>2015-01-12T10:15:01Z</time>
      </trkpt>
      <trkpt lat="47.16451" lon="5.51668">
        <ele>286</ele>
        <time>2015-01-12T10:15:05Z</time>
      </trkpt>
      <trkpt lat="47.1641" lon="5.51674">
        <ele>286</ele>
        <time>2015-01-12T10:15:37Z</time>
      </trkpt>
      <trkpt lat="47.16405" lon="5.51675">
        <ele>285</ele>
        <time>2015-01-12T10:15:44Z</time>
      </trkpt>
      <trkpt lat="47.16399" lon="5.51673">
        <ele>284</ele>
        <time>2015-01-12T10:15:49Z</time>
      </trkpt>
      <trkpt lat="47.16394" lon="5.5167">
        <ele>284</ele>
        <time>2015-01-12T10:15:53Z</time>
      </trkpt>
      <trkpt lat="47.1639" lon="5.51673">
        <ele>284</ele>
        <time>2015-01-12T10:15:56Z</time>
      </trkpt>
      <trkpt lat="47.16351" lon="5.51683">
        <ele>288</ele>
        <time>2015-01-12T10:16:29Z</time>
      </trkpt>
      <trkpt lat="47.16313" lon="5.51702">
        <ele>293</ele>
        <time>2015-01-12T10:16:58Z</time>
      </trkpt>
      <trkpt lat="47.16303" lon="5.5171">
        <ele>293</ele>
        <time>2015-01-12T10:17:05Z</time>
      </trkpt>
      <trkpt lat="47.16287" lon="5.5172">
        <ele>296</ele>
        <time>2015-01-12T10:17:17Z</time>
      </trkpt>
      <trkpt lat="47.16277" lon="5.51728">
        <ele>296</ele>
        <time>2015-01-12T10:17:29Z</time>
      </trkpt>
      <trkpt lat="47.16273" lon="5.51732">
        <ele>296</ele>
        <time>2015-01-12T10:17:32Z</time>
      </trkpt>
      <trkpt lat="47.1627" lon="5.51737">
        <ele>295</ele>
        <time>2015-01-12T10:17:40Z</time>
      </trkpt>
      <trkpt lat="47.16238" lon="5.5175">
        <ele>294</ele>
        <time>2015-01-12T10:18:04Z</time>
      </trkpt>
      <trkpt lat="47.16224" lon="5.51759">
        <ele>296</ele>
        <time>2015-01-12T10:18:17Z</time>
      </trkpt>
      <trkpt lat="47.16221" lon="5.51764">
        <ele>296</ele>
        <time>2015-01-12T10:18:24Z</time>
      </trkpt>
      <trkpt lat="47.16221" lon="5.51768">
        <ele>296</ele>
        <time>2015-01-12T10:18:30Z</time>
      </trkpt>
      <trkpt lat="47.1622" lon="5.5177">
        <ele>294</ele>
        <time>2015-01-12T10:19:20Z</time>
      </trkpt>
      <trkpt lat="47.16218" lon="5.51774">
        <ele>292</ele>
        <time>2015-01-12T10:22:51Z</time>
      </trkpt>
      <trkpt lat="47.16233" lon="5.51802">
        <ele>290</ele>
        <time>2015-01-12T10:24:05Z</time>
      </trkpt>
      <trkpt lat="47.16247" lon="5.51809">
        <ele>287</ele>
        <time>2015-01-12T10:24:19Z</time>
      </trkpt>
      <trkpt lat="47.16273" lon="5.51832">
        <ele>286</ele>
        <time>2015-01-12T10:24:44Z</time>
      </trkpt>
      <trkpt lat="47.16288" lon="5.51847">
        <ele>284</ele>
        <time>2015-01-12T10:24:56Z</time>
      </trkpt>
      <trkpt lat="47.16305" lon="5.51865">
        <ele>284</ele>
        <time>2015-01-12T10:25:11Z</time>
      </trkpt>
      <trkpt lat="47.16311" lon="5.51874">
        <ele>284</ele>
        <time>2015-01-12T10:25:19Z</time>
      </trkpt>
      <trkpt lat="47.16324" lon="5.51894">
        <ele>281</ele>
        <time>2015-01-12T10:25:34Z</time>
      </trkpt>
      <trkpt lat="47.1633" lon="5.51904">
        <ele>281</ele>
        <time>2015-01-12T10:25:40Z</time>
      </trkpt>
      <trkpt lat="47.16349" lon="5.51954">
        <ele>285</ele>
        <time>2015-01-12T10:26:08Z</time>
      </trkpt>
      <trkpt lat="47.16356" lon="5.51974">
        <ele>284</ele>
        <time>2015-01-12T10:26:19Z</time>
      </trkpt>
      <trkpt lat="47.16378" lon="5.52038">
        <ele>286</ele>
        <time>2015-01-12T10:26:51Z</time>
      </trkpt>
      <trkpt lat="47.16385" lon="5.52047">
        <ele>286</ele>
        <time>2015-01-12T10:26:59Z</time>
      </trkpt>
      <trkpt lat="47.16389" lon="5.52052">
        <ele>286</ele>
        <time>2015-01-12T10:27:03Z</time>
      </trkpt>
      <trkpt lat="47.16394" lon="5.52053">
        <ele>286</ele>
        <time>2015-01-12T10:27:08Z</time>
      </trkpt>
      <trkpt lat="47.16396" lon="5.5206">
        <ele>286</ele>
        <time>2015-01-12T10:27:10Z</time>
      </trkpt>
      <trkpt lat="47.16398" lon="5.52066">
        <ele>287</ele>
        <time>2015-01-12T10:27:13Z</time>
      </trkpt>
      <trkpt lat="47.16408" lon="5.52086">
        <ele>286</ele>
        <time>2015-01-12T10:27:27Z</time>
      </trkpt>
      <trkpt lat="47.16413" lon="5.52092">
        <ele>286</ele>
        <time>2015-01-12T10:27:32Z</time>
      </trkpt>
      <trkpt lat="47.16419" lon="5.52104">
        <ele>286</ele>
        <time>2015-01-12T10:27:38Z</time>
      </trkpt>
      <trkpt lat="47.1642" lon="5.52111">
        <ele>285</ele>
        <time>2015-01-12T10:27:42Z</time>
      </trkpt>
      <trkpt lat="47.16437" lon="5.52164">
        <ele>280</ele>
        <time>2015-01-12T10:28:13Z</time>
      </trkpt>
      <trkpt lat="47.16447" lon="5.52226">
        <ele>280</ele>
        <time>2015-01-12T10:28:39Z</time>
      </trkpt>
      <trkpt lat="47.16455" lon="5.5226">
        <ele>284</ele>
        <time>2015-01-12T10:28:58Z</time>
      </trkpt>
      <trkpt lat="47.16455" lon="5.52268">
        <ele>284</ele>
        <time>2015-01-12T10:29:03Z</time>
      </trkpt>
      <trkpt lat="47.16457" lon="5.52274">
        <ele>284</ele>
        <time>2015-01-12T10:29:07Z</time>
      </trkpt>
      <trkpt lat="47.16464" lon="5.52284">
        <ele>284</ele>
        <time>2015-01-12T10:29:16Z</time>
      </trkpt>
      <trkpt lat="47.16467" lon="5.52289">
        <ele>283</ele>
        <time>2015-01-12T10:29:20Z</time>
      </trkpt>
      <trkpt lat="47.16487" lon="5.52332">
        <ele>275</ele>
        <time>2015-01-12T10:29:45Z</time>
      </trkpt>
      <trkpt lat="47.16487" lon="5.5234">
        <ele>275</ele>
        <time>2015-01-12T10:29:48Z</time>
      </trkpt>
      <trkpt lat="47.1649" lon="5.52355">
        <ele>275</ele>
        <time>2015-01-12T10:29:54Z</time>
      </trkpt>
      <trkpt lat="47.16487" lon="5.52384">
        <ele>277</ele>
        <time>2015-01-12T10:30:11Z</time>
      </trkpt>
      <trkpt lat="47.16486" lon="5.52393">
        <ele>277</ele>
        <time>2015-01-12T10:30:15Z</time>
      </trkpt>
      <trkpt lat="47.16475" lon="5.52449">
        <ele>273</ele>
        <time>2015-01-12T10:30:47Z</time>
      </trkpt>
      <trkpt lat="47.16467" lon="5.52458">
        <ele>273</ele>
        <time>2015-01-12T10:30:56Z</time>
      </trkpt>
      <trkpt lat="47.16443" lon="5.52519">
        <ele>274</ele>
        <time>2015-01-12T10:31:27Z</time>
      </trkpt>
      <trkpt lat="47.16441" lon="5.52526">
        <ele>274</ele>
        <time>2015-01-12T10:31:31Z</time>
      </trkpt>
      <trkpt lat="47.16436" lon="5.52541">
        <ele>273</ele>
        <time>2015-01-12T10:31:41Z</time>
      </trkpt>
      <trkpt lat="47.16432" lon="5.52553">
        <ele>274</ele>
        <time>2015-01-12T10:31:48Z</time>
      </trkpt>
      <trkpt lat="47.16426" lon="5.52564">
        <ele>275</ele>
        <time>2015-01-12T10:31:58Z</time>
      </trkpt>
      <trkpt lat="47.16421" lon="5.52587">
        <ele>275</ele>
        <time>2015-01-12T10:32:37Z</time>
      </trkpt>
      <trkpt lat="47.16416" lon="5.52599">
        <ele>273</ele>
        <time>2015-01-12T10:32:46Z</time>
      </trkpt>
      <trkpt lat="47.16412" lon="5.52627">
        <ele>269</ele>
        <time>2015-01-12T10:33:05Z</time>
      </trkpt>
      <trkpt lat="47.16395" lon="5.52679">
        <ele>268</ele>
        <time>2015-01-12T10:33:40Z</time>
      </trkpt>
      <trkpt lat="47.16372" lon="5.52724">
        <ele>271</ele>
        <time>2015-01-12T10:34:19Z</time>
      </trkpt>
      <trkpt lat="47.16363" lon="5.52764">
        <ele>272</ele>
        <time>2015-01-12T10:34:48Z</time>
      </trkpt>
      <trkpt lat="47.16331" lon="5.52793">
        <ele>273</ele>
        <time>2015-01-12T10:35:24Z</time>
      </trkpt>
      <trkpt lat="47.16311" lon="5.52824">
        <ele>272</ele>
        <time>2015-01-12T10:35:50Z</time>
      </trkpt>
      <trkpt lat="47.16305" lon="5.52834">
        <ele>272</ele>
        <time>2015-01-12T10:35:56Z</time>
      </trkpt>
      <trkpt lat="47.16302" lon="5.52847">
        <ele>273</ele>
        <time>2015-01-12T10:36:05Z</time>
      </trkpt>
      <trkpt lat="47.16304" lon="5.52857">
        <ele>274</ele>
        <time>2015-01-12T10:36:21Z</time>
      </trkpt>
      <trkpt lat="47.16309" lon="5.52867">
        <ele>276</ele>
        <time>2015-01-12T10:37:26Z</time>
      </trkpt>
      <trkpt lat="47.16319" lon="5.52874">
        <ele>276</ele>
        <time>2015-01-12T10:37:33Z</time>
      </trkpt>
      <trkpt lat="47.16343" lon="5.52896">
        <ele>268</ele>
        <time>2015-01-12T10:38:01Z</time>
      </trkpt>
      <trkpt lat="47.16359" lon="5.52909">
        <ele>268</ele>
        <time>2015-01-12T10:38:26Z</time>
      </trkpt>
      <trkpt lat="47.16376" lon="5.52921">
        <ele>259</ele>
        <time>2015-01-12T10:38:56Z</time>
      </trkpt>
      <trkpt lat="47.1638" lon="5.52948">
        <ele>255</ele>
        <time>2015-01-12T10:39:31Z</time>
      </trkpt>
      <trkpt lat="47.16376" lon="5.52964">
        <ele>254</ele>
        <time>2015-01-12T10:39:52Z</time>
      </trkpt>
      <trkpt lat="47.16381" lon="5.52976">
        <ele>254</ele>
        <time>2015-01-12T10:40:06Z</time>
      </trkpt>
      <trkpt lat="47.16389" lon="5.52988">
        <ele>261</ele>
        <time>2015-01-12T10:40:32Z</time>
      </trkpt>
      <trkpt lat="47.16391" lon="5.52977">
        <ele>263</ele>
        <time>2015-01-12T10:41:12Z</time>
      </trkpt>
      <trkpt lat="47.16394" lon="5.52987">
        <ele>265</ele>
        <time>2015-01-12T10:42:35Z</time>
      </trkpt>
      <trkpt lat="47.16394" lon="5.53">
        <ele>265</ele>
        <time>2015-01-12T10:42:55Z</time>
      </trkpt>
      <trkpt lat="47.16385" lon="5.53003">
        <ele>264</ele>
        <time>2015-01-12T10:43:05Z</time>
      </trkpt>
      <trkpt lat="47.16376" lon="5.53006">
        <ele>264</ele>
        <time>2015-01-12T10:43:15Z</time>
      </trkpt>
      <trkpt lat="47.16368" lon="5.53014">
        <ele>263</ele>
        <time>2015-01-12T10:43:30Z</time>
      </trkpt>
      <trkpt lat="47.16361" lon="5.53023">
        <ele>263</ele>
        <time>2015-01-12T10:43:39Z</time>
      </trkpt>
      <trkpt lat="47.16328" lon="5.53053">
        <ele>255</ele>
        <time>2015-01-12T10:44:17Z</time>
      </trkpt>
      <trkpt lat="47.16321" lon="5.53063">
        <ele>253</ele>
        <time>2015-01-12T10:44:28Z</time>
      </trkpt>
      <trkpt lat="47.16314" lon="5.53071">
        <ele>253</ele>
        <time>2015-01-12T10:44:37Z</time>
      </trkpt>
      <trkpt lat="47.16306" lon="5.53078">
        <ele>253</ele>
        <time>2015-01-12T10:44:44Z</time>
      </trkpt>
      <trkpt lat="47.16297" lon="5.53082">
        <ele>253</ele>
        <time>2015-01-12T10:44:52Z</time>
      </trkpt>
      <trkpt lat="47.16288" lon="5.53084">
        <ele>252</ele>
        <time>2015-01-12T10:45:08Z</time>
      </trkpt>
      <trkpt lat="47.16279" lon="5.53089">
        <ele>252</ele>
        <time>2015-01-12T10:45:19Z</time>
      </trkpt>
      <trkpt lat="47.16256" lon="5.53114">
        <ele>247</ele>
        <time>2015-01-12T10:45:42Z</time>
      </trkpt>
      <trkpt lat="47.16251" lon="5.53126">
        <ele>247</ele>
        <time>2015-01-12T10:45:52Z</time>
      </trkpt>
      <trkpt lat="47.16253" lon="5.5314">
        <ele>247</ele>
        <time>2015-01-12T10:46:02Z</time>
      </trkpt>
      <trkpt lat="47.16245" lon="5.53167">
        <ele>246</ele>
        <time>2015-01-12T10:46:23Z</time>
      </trkpt>
      <trkpt lat="47.1624" lon="5.53178">
        <ele>246</ele>
        <time>2015-01-12T10:46:37Z</time>
      </trkpt>
      <trkpt lat="47.16239" lon="5.53186">
        <ele>248</ele>
        <time>2015-01-12T10:46:55Z</time>
      </trkpt>
      <trkpt lat="47.16221" lon="5.53199">
        <ele>251</ele>
        <time>2015-01-12T10:47:13Z</time>
      </trkpt>
      <trkpt lat="47.16203" lon="5.53204">
        <ele>249</ele>
        <time>2015-01-12T10:47:37Z</time>
      </trkpt>
      <trkpt lat="47.16194" lon="5.53208">
        <ele>248</ele>
        <time>2015-01-12T10:47:46Z</time>
      </trkpt>
      <trkpt lat="47.16185" lon="5.53208">
        <ele>249</ele>
        <time>2015-01-12T10:47:56Z</time>
      </trkpt>
      <trkpt lat="47.16156" lon="5.53231">
        <ele>242</ele>
        <time>2015-01-12T10:48:32Z</time>
      </trkpt>
      <trkpt lat="47.16144" lon="5.53252">
        <ele>240</ele>
        <time>2015-01-12T10:48:48Z</time>
      </trkpt>
      <trkpt lat="47.16128" lon="5.53268">
        <ele>240</ele>
        <time>2015-01-12T10:49:03Z</time>
      </trkpt>
      <trkpt lat="47.16124" lon="5.5328">
        <ele>240</ele>
        <time>2015-01-12T10:49:11Z</time>
      </trkpt>
      <trkpt lat="47.16101" lon="5.53304">
        <ele>238</ele>
        <time>2015-01-12T10:49:35Z</time>
      </trkpt>
      <trkpt lat="47.16092" lon="5.53309">
        <ele>239</ele>
        <time>2015-01-12T10:49:44Z</time>
      </trkpt>
      <trkpt lat="47.16075" lon="5.5332">
        <ele>240</ele>
        <time>2015-01-12T10:50:00Z</time>
      </trkpt>
      <trkpt lat="47.16036" lon="5.53332">
        <ele>238</ele>
        <time>2015-01-12T10:50:30Z</time>
      </trkpt>
      <trkpt lat="47.16027" lon="5.53334">
        <ele>237</ele>
        <time>2015-01-12T10:50:38Z</time>
      </trkpt>
      <trkpt lat="47.16009" lon="5.53348">
        <ele>236</ele>
        <time>2015-01-12T10:51:03Z</time>
      </trkpt>
      <trkpt lat="47.15972" lon="5.53367">
        <ele>231</ele>
        <time>2015-01-12T10:51:35Z</time>
      </trkpt>
      <trkpt lat="47.15946" lon="5.53387">
        <ele>230</ele>
        <time>2015-01-12T10:52:02Z</time>
      </trkpt>
      <trkpt lat="47.15942" lon="5.53399">
        <ele>229</ele>
        <time>2015-01-12T10:52:11Z</time>
      </trkpt>
      <trkpt lat="47.15937" lon="5.5341">
        <ele>228</ele>
        <time>2015-01-12T10:52:18Z</time>
      </trkpt>
      <trkpt lat="47.15932" lon="5.5344">
        <ele>226</ele>
        <time>2015-01-12T10:52:31Z</time>
      </trkpt>
      <trkpt lat="47.15923" lon="5.53464">
        <ele>226</ele>
        <time>2015-01-12T10:52:49Z</time>
      </trkpt>
      <trkpt lat="47.15906" lon="5.535">
        <ele>228</ele>
        <time>2015-01-12T10:53:11Z</time>
      </trkpt>
      <trkpt lat="47.15894" lon="5.53522">
        <ele>228</ele>
        <time>2015-01-12T10:53:26Z</time>
      </trkpt>
      <trkpt lat="47.15885" lon="5.53528">
        <ele>229</ele>
        <time>2015-01-12T10:53:32Z</time>
      </trkpt>
      <trkpt lat="47.15877" lon="5.53537">
        <ele>229</ele>
        <time>2015-01-12T10:53:40Z</time>
      </trkpt>
      <trkpt lat="47.15868" lon="5.53541">
        <ele>228</ele>
        <time>2015-01-12T10:53:49Z</time>
      </trkpt>
      <trkpt lat="47.15837" lon="5.53572">
        <ele>225</ele>
        <time>2015-01-12T10:54:21Z</time>
      </trkpt>
      <trkpt lat="47.1583" lon="5.53583">
        <ele>225</ele>
        <time>2015-01-12T10:54:30Z</time>
      </trkpt>
      <trkpt lat="47.15827" lon="5.53596">
        <ele>225</ele>
        <time>2015-01-12T10:54:39Z</time>
      </trkpt>
      <trkpt lat="47.15829" lon="5.5361">
        <ele>225</ele>
        <time>2015-01-12T10:54:48Z</time>
      </trkpt>
      <trkpt lat="47.15842" lon="5.53635">
        <ele>227</ele>
        <time>2015-01-12T10:55:29Z</time>
      </trkpt>
      <trkpt lat="47.1585" lon="5.5364">
        <ele>228</ele>
        <time>2015-01-12T10:55:47Z</time>
      </trkpt>
      <trkpt lat="47.15859" lon="5.53646">
        <ele>229</ele>
        <time>2015-01-12T10:56:00Z</time>
      </trkpt>
      <trkpt lat="47.15866" lon="5.53656">
        <ele>232</ele>
        <time>2015-01-12T10:56:16Z</time>
      </trkpt>
      <trkpt lat="47.15867" lon="5.5367">
        <ele>233</ele>
        <time>2015-01-12T10:56:25Z</time>
      </trkpt>
      <trkpt lat="47.15866" lon="5.53683">
        <ele>234</ele>
        <time>2015-01-12T10:56:33Z</time>
      </trkpt>
      <trkpt lat="47.15861" lon="5.53684">
        <ele>235</ele>
        <time>2015-01-12T10:56:57Z</time>
      </trkpt>
      <trkpt lat="47.15863" lon="5.53697">
        <ele>233</ele>
        <time>2015-01-12T10:57:24Z</time>
      </trkpt>
      <trkpt lat="47.15866" lon="5.5371">
        <ele>232</ele>
        <time>2015-01-12T10:57:32Z</time>
      </trkpt>
      <trkpt lat="47.15867" lon="5.53723">
        <ele>230</ele>
        <time>2015-01-12T10:57:45Z</time>
      </trkpt>
      <trkpt lat="47.1586" lon="5.53734">
        <ele>230</ele>
        <time>2015-01-12T10:57:57Z</time>
      </trkpt>
      <trkpt lat="47.15849" lon="5.53756">
        <ele>231</ele>
        <time>2015-01-12T10:58:16Z</time>
      </trkpt>
      <trkpt lat="47.1584" lon="5.5381">
        <ele>236</ele>
        <time>2015-01-12T10:58:51Z</time>
      </trkpt>
      <trkpt lat="47.15825" lon="5.5386">
        <ele>234</ele>
        <time>2015-01-12T10:59:20Z</time>
      </trkpt>
      <trkpt lat="47.1581" lon="5.53895">
        <ele>232</ele>
        <time>2015-01-12T10:59:46Z</time>
      </trkpt>
      <trkpt lat="47.15786" lon="5.53937">
        <ele>232</ele>
        <time>2015-01-12T11:00:21Z</time>
      </trkpt>
      <trkpt lat="47.15778" lon="5.53962">
        <ele>231</ele>
        <time>2015-01-12T11:00:35Z</time>
      </trkpt>
      <trkpt lat="47.15777" lon="5.53976">
        <ele>232</ele>
        <time>2015-01-12T11:00:40Z</time>
      </trkpt>
      <trkpt lat="47.15775" lon="5.54031">
        <ele>234</ele>
        <time>2015-01-12T11:01:11Z</time>
      </trkpt>
      <trkpt lat="47.15772" lon="5.54059">
        <ele>234</ele>
        <time>2015-01-12T11:01:27Z</time>
      </trkpt>
      <trkpt lat="47.15766" lon="5.54114">
        <ele>230</ele>
        <time>2015-01-12T11:02:01Z</time>
      </trkpt>
      <trkpt lat="47.15759" lon="5.54126">
        <ele>228</ele>
        <time>2015-01-12T11:02:11Z</time>
      </trkpt>
      <trkpt lat="47.15752" lon="5.54135">
        <ele>227</ele>
        <time>2015-01-12T11:02:18Z</time>
      </trkpt>
      <trkpt lat="47.15743" lon="5.54138">
        <ele>227</ele>
        <time>2015-01-12T11:02:28Z</time>
      </trkpt>
      <trkpt lat="47.15735" lon="5.54145">
        <ele>227</ele>
        <time>2015-01-12T11:02:35Z</time>
      </trkpt>
      <trkpt lat="47.1573" lon="5.54157">
        <ele>229</ele>
        <time>2015-01-12T11:02:42Z</time>
      </trkpt>
      <trkpt lat="47.15716" lon="5.54173">
        <ele>230</ele>
        <time>2015-01-12T11:02:57Z</time>
      </trkpt>
      <trkpt lat="47.15686" lon="5.54207">
        <ele>230</ele>
        <time>2015-01-12T11:03:28Z</time>
      </trkpt>
      <trkpt lat="47.15679" lon="5.54217">
        <ele>231</ele>
        <time>2015-01-12T11:03:36Z</time>
      </trkpt>
      <trkpt lat="47.15672" lon="5.54227">
        <ele>232</ele>
        <time>2015-01-12T11:03:45Z</time>
      </trkpt>
      <trkpt lat="47.15667" lon="5.54237">
        <ele>232</ele>
        <time>2015-01-12T11:03:53Z</time>
      </trkpt>
      <trkpt lat="47.15636" lon="5.54291">
        <ele>229</ele>
        <time>2015-01-12T11:04:30Z</time>
      </trkpt>
      <trkpt lat="47.15621" lon="5.54306">
        <ele>229</ele>
        <time>2015-01-12T11:04:45Z</time>
      </trkpt>
      <trkpt lat="47.15602" lon="5.54311">
        <ele>229</ele>
        <time>2015-01-12T11:05:00Z</time>
      </trkpt>
      <trkpt lat="47.15576" lon="5.54324">
        <ele>226</ele>
        <time>2015-01-12T11:05:23Z</time>
      </trkpt>
      <trkpt lat="47.1554" lon="5.54349">
        <ele>225</ele>
        <time>2015-01-12T11:05:55Z</time>
      </trkpt>
      <trkpt lat="47.15506" lon="5.54377">
        <ele>226</ele>
        <time>2015-01-12T11:06:27Z</time>
      </trkpt>
      <trkpt lat="47.15491" lon="5.54395">
        <ele>227</ele>
        <time>2015-01-12T11:06:41Z</time>
      </trkpt>
      <trkpt lat="47.15486" lon="5.54407">
        <ele>227</ele>
        <time>2015-01-12T11:06:51Z</time>
      </trkpt>
      <trkpt lat="47.15482" lon="5.5442">
        <ele>227</ele>
        <time>2015-01-12T11:06:59Z</time>
      </trkpt>
      <trkpt lat="47.15479" lon="5.54432">
        <ele>227</ele>
        <time>2015-01-12T11:07:06Z</time>
      </trkpt>
      <trkpt lat="47.15476" lon="5.5446">
        <ele>225</ele>
        <time>2015-01-12T11:07:22Z</time>
      </trkpt>
      <trkpt lat="47.1547" lon="5.54471">
        <ele>224</ele>
        <time>2015-01-12T11:07:29Z</time>
      </trkpt>
      <trkpt lat="47.15464" lon="5.5448">
        <ele>224</ele>
        <time>2015-01-12T11:07:38Z</time>
      </trkpt>
      <trkpt lat="47.15456" lon="5.54488">
        <ele>222</ele>
        <time>2015-01-12T11:07:46Z</time>
      </trkpt>
      <trkpt lat="47.15438" lon="5.54502">
        <ele>221</ele>
        <time>2015-01-12T11:08:04Z</time>
      </trkpt>
      <trkpt lat="47.1542" lon="5.54515">
        <ele>221</ele>
        <time>2015-01-12T11:08:20Z</time>
      </trkpt>
      <trkpt lat="47.15384" lon="5.54538">
        <ele>220</ele>
        <time>2015-01-12T11:08:51Z</time>
      </trkpt>
      <trkpt lat="47.15369" lon="5.54555">
        <ele>221</ele>
        <time>2015-01-12T11:09:07Z</time>
      </trkpt>
      <trkpt lat="47.15361" lon="5.54562">
        <ele>221</ele>
        <time>2015-01-12T11:09:17Z</time>
      </trkpt>
      <trkpt lat="47.15344" lon="5.54575">
        <ele>221</ele>
        <time>2015-01-12T11:09:32Z</time>
      </trkpt>
      <trkpt lat="47.15335" lon="5.54578">
        <ele>221</ele>
        <time>2015-01-12T11:09:38Z</time>
      </trkpt>
      <trkpt lat="47.15317" lon="5.54582">
        <ele>218</ele>
        <time>2015-01-12T11:09:51Z</time>
      </trkpt>
      <trkpt lat="47.15283" lon="5.54606">
        <ele>218</ele>
        <time>2015-01-12T11:10:23Z</time>
      </trkpt>
      <trkpt lat="47.15267" lon="5.54622">
        <ele>217</ele>
        <time>2015-01-12T11:10:36Z</time>
      </trkpt>
      <trkpt lat="47.1524" lon="5.5464">
        <ele>218</ele>
        <time>2015-01-12T11:10:58Z</time>
      </trkpt>
      <trkpt lat="47.15206" lon="5.54662">
        <ele>218</ele>
        <time>2015-01-12T11:11:30Z</time>
      </trkpt>
      <trkpt lat="47.15188" lon="5.54671">
        <ele>219</ele>
        <time>2015-01-12T11:11:48Z</time>
      </trkpt>
      <trkpt lat="47.15158" lon="5.54704">
        <ele>216</ele>
        <time>2015-01-12T11:12:17Z</time>
      </trkpt>
      <trkpt lat="47.15147" lon="5.54728">
        <ele>215</ele>
        <time>2015-01-12T11:12:36Z</time>
      </trkpt>
      <trkpt lat="47.15142" lon="5.54741">
        <ele>216</ele>
        <time>2015-01-12T11:12:44Z</time>
      </trkpt>
      <trkpt lat="47.15142" lon="5.54756">
        <ele>216</ele>
        <time>2015-01-12T11:12:53Z</time>
      </trkpt>
      <trkpt lat="47.15144" lon="5.54769">
        <ele>216</ele>
        <time>2015-01-12T11:13:00Z</time>
      </trkpt>
      <trkpt lat="47.15156" lon="5.54792">
        <ele>215</ele>
        <time>2015-01-12T11:13:20Z</time>
      </trkpt>
      <trkpt lat="47.15158" lon="5.54805">
        <ele>215</ele>
        <time>2015-01-12T11:13:27Z</time>
      </trkpt>
      <trkpt lat="47.15163" lon="5.54833">
        <ele>216</ele>
        <time>2015-01-12T11:13:39Z</time>
      </trkpt>
      <trkpt lat="47.15169" lon="5.54842">
        <ele>215</ele>
        <time>2015-01-12T11:13:50Z</time>
      </trkpt>
      <trkpt lat="47.15166" lon="5.54856">
        <ele>214</ele>
        <time>2015-01-12T11:13:58Z</time>
      </trkpt>
      <trkpt lat="47.15152" lon="5.54872">
        <ele>212</ele>
        <time>2015-01-12T11:14:13Z</time>
      </trkpt>
      <trkpt lat="47.15131" lon="5.54876">
        <ele>212</ele>
        <time>2015-01-12T11:14:26Z</time>
      </trkpt>
      <trkpt lat="47.15113" lon="5.54869">
        <ele>212</ele>
        <time>2015-01-12T11:14:48Z</time>
      </trkpt>
      <trkpt lat="47.15101" lon="5.54875">
        <ele>210</ele>
        <time>2015-01-12T11:15:03Z</time>
      </trkpt>
      <trkpt lat="47.15096" lon="5.54875">
        <ele>210</ele>
        <time>2015-01-12T11:15:07Z</time>
      </trkpt>
      <trkpt lat="47.15092" lon="5.54876">
        <ele>210</ele>
        <time>2015-01-12T11:15:10Z</time>
      </trkpt>
      <trkpt lat="47.15072" lon="5.54887">
        <ele>215</ele>
        <time>2015-01-12T11:15:43Z</time>
      </trkpt>
      <trkpt lat="47.15068" lon="5.54891">
        <ele>215</ele>
        <time>2015-01-12T11:15:47Z</time>
      </trkpt>
      <trkpt lat="47.15064" lon="5.54895">
        <ele>215</ele>
        <time>2015-01-12T11:15:51Z</time>
      </trkpt>
      <trkpt lat="47.15055" lon="5.54901">
        <ele>215</ele>
        <time>2015-01-12T11:15:59Z</time>
      </trkpt>
      <trkpt lat="47.1505" lon="5.54902">
        <ele>216</ele>
        <time>2015-01-12T11:16:02Z</time>
      </trkpt>
      <trkpt lat="47.15046" lon="5.54903">
        <ele>216</ele>
        <time>2015-01-12T11:16:10Z</time>
      </trkpt>
      <trkpt lat="47.15042" lon="5.54906">
        <ele>216</ele>
        <time>2015-01-12T11:16:17Z</time>
      </trkpt>
      <trkpt lat="47.15037" lon="5.54909">
        <ele>217</ele>
        <time>2015-01-12T11:16:21Z</time>
      </trkpt>
      <trkpt lat="47.15029" lon="5.54918">
        <ele>219</ele>
        <time>2015-01-12T11:16:29Z</time>
      </trkpt>
      <trkpt lat="47.15025" lon="5.54922">
        <ele>220</ele>
        <time>2015-01-12T11:16:32Z</time>
      </trkpt>
      <trkpt lat="47.15016" lon="5.5493">
        <ele>219</ele>
        <time>2015-01-12T11:16:40Z</time>
      </trkpt>
      <trkpt lat="47.15011" lon="5.54944">
        <ele>219</ele>
        <time>2015-01-12T11:16:48Z</time>
      </trkpt>
      <trkpt lat="47.14979" lon="5.54982">
        <ele>221</ele>
        <time>2015-01-12T11:17:21Z</time>
      </trkpt>
      <trkpt lat="47.14975" lon="5.54986">
        <ele>222</ele>
        <time>2015-01-12T11:17:24Z</time>
      </trkpt>
      <trkpt lat="47.14947" lon="5.55023">
        <ele>225</ele>
        <time>2015-01-12T11:17:48Z</time>
      </trkpt>
      <trkpt lat="47.14943" lon="5.55029">
        <ele>226</ele>
        <time>2015-01-12T11:17:51Z</time>
      </trkpt>
      <trkpt lat="47.14926" lon="5.55066">
        <ele>223</ele>
        <time>2015-01-12T11:18:12Z</time>
      </trkpt>
      <trkpt lat="47.1492" lon="5.55095">
        <ele>224</ele>
        <time>2015-01-12T11:18:28Z</time>
      </trkpt>
      <trkpt lat="47.14915" lon="5.55108">
        <ele>226</ele>
        <time>2015-01-12T11:18:38Z</time>
      </trkpt>
      <trkpt lat="47.14912" lon="5.55116">
        <ele>226</ele>
        <time>2015-01-12T11:18:42Z</time>
      </trkpt>
      <trkpt lat="47.1491" lon="5.55124">
        <ele>226</ele>
        <time>2015-01-12T11:18:46Z</time>
      </trkpt>
      <trkpt lat="47.14906" lon="5.5513">
        <ele>226</ele>
        <time>2015-01-12T11:18:50Z</time>
      </trkpt>
      <trkpt lat="47.14901" lon="5.5513">
        <ele>225</ele>
        <time>2015-01-12T11:18:54Z</time>
      </trkpt>
      <trkpt lat="47.14897" lon="5.55126">
        <ele>224</ele>
        <time>2015-01-12T11:18:59Z</time>
      </trkpt>
      <trkpt lat="47.14892" lon="5.55115">
        <ele>223</ele>
        <time>2015-01-12T11:19:04Z</time>
      </trkpt>
      <trkpt lat="47.14873" lon="5.55102">
        <ele>223</ele>
        <time>2015-01-12T11:19:17Z</time>
      </trkpt>
      <trkpt lat="47.14869" lon="5.55097">
        <ele>222</ele>
        <time>2015-01-12T11:19:19Z</time>
      </trkpt>
      <trkpt lat="47.14863" lon="5.55091">
        <ele>221</ele>
        <time>2015-01-12T11:19:24Z</time>
      </trkpt>
      <trkpt lat="47.14851" lon="5.55088">
        <ele>221</ele>
        <time>2015-01-12T11:19:35Z</time>
      </trkpt>
      <trkpt lat="47.14847" lon="5.55083">
        <ele>221</ele>
        <time>2015-01-12T11:19:40Z</time>
      </trkpt>
      <trkpt lat="47.14838" lon="5.55074">
        <ele>222</ele>
        <time>2015-01-12T11:19:49Z</time>
      </trkpt>
      <trkpt lat="47.14822" lon="5.55062">
        <ele>222</ele>
        <time>2015-01-12T11:20:02Z</time>
      </trkpt>
      <trkpt lat="47.14818" lon="5.55058">
        <ele>222</ele>
        <time>2015-01-12T11:20:06Z</time>
      </trkpt>
      <trkpt lat="47.1482" lon="5.5505">
        <ele>221</ele>
        <time>2015-01-12T11:20:10Z</time>
      </trkpt>
      <trkpt lat="47.14829" lon="5.55032">
        <ele>218</ele>
        <time>2015-01-12T11:20:20Z</time>
      </trkpt>
      <trkpt lat="47.14833" lon="5.55018">
        <ele>218</ele>
        <time>2015-01-12T11:20:27Z</time>
      </trkpt>
      <trkpt lat="47.14832" lon="5.55011">
        <ele>218</ele>
        <time>2015-01-12T11:20:30Z</time>
      </trkpt>
      <trkpt lat="47.1482" lon="5.54986">
        <ele>216</ele>
        <time>2015-01-12T11:20:46Z</time>
      </trkpt>
      <trkpt lat="47.14798" lon="5.54947">
        <ele>219</ele>
        <time>2015-01-12T11:21:07Z</time>
      </trkpt>
      <trkpt lat="47.14796" lon="5.54941">
        <ele>219</ele>
        <time>2015-01-12T11:21:15Z</time>
      </trkpt>
      <trkpt lat="47.1479" lon="5.54937">
        <ele>218</ele>
        <time>2015-01-12T11:21:19Z</time>
      </trkpt>
      <trkpt lat="47.14762" lon="5.54935">
        <ele>213</ele>
        <time>2015-01-12T11:21:38Z</time>
      </trkpt>
      <trkpt lat="47.14758" lon="5.54939">
        <ele>212</ele>
        <time>2015-01-12T11:21:42Z</time>
      </trkpt>
      <trkpt lat="47.14756" lon="5.54946">
        <ele>211</ele>
        <time>2015-01-12T11:21:46Z</time>
      </trkpt>
      <trkpt lat="47.14725" lon="5.54997">
        <ele>207</ele>
        <time>2015-01-12T11:22:18Z</time>
      </trkpt>
      <trkpt lat="47.1472" lon="5.55019">
        <ele>208</ele>
        <time>2015-01-12T11:22:32Z</time>
      </trkpt>
      <trkpt lat="47.14711" lon="5.55028">
        <ele>207</ele>
        <time>2015-01-12T11:22:38Z</time>
      </trkpt>
      <trkpt lat="47.14693" lon="5.55071">
        <ele>211</ele>
        <time>2015-01-12T11:23:03Z</time>
      </trkpt>
      <trkpt lat="47.1469" lon="5.55077">
        <ele>211</ele>
        <time>2015-01-12T11:23:06Z</time>
      </trkpt>
      <trkpt lat="47.14682" lon="5.55089">
        <ele>210</ele>
        <time>2015-01-12T11:23:14Z</time>
      </trkpt>
      <trkpt lat="47.14665" lon="5.55104">
        <ele>210</ele>
        <time>2015-01-12T11:23:28Z</time>
      </trkpt>
      <trkpt lat="47.14657" lon="5.55125">
        <ele>208</ele>
        <time>2015-01-12T11:23:39Z</time>
      </trkpt>
      <trkpt lat="47.14656" lon="5.55132">
        <ele>207</ele>
        <time>2015-01-12T11:23:43Z</time>
      </trkpt>
      <trkpt lat="47.1465" lon="5.55145">
        <ele>206</ele>
        <time>2015-01-12T11:23:50Z</time>
      </trkpt>
      <trkpt lat="47.14643" lon="5.55165">
        <ele>202</ele>
        <time>2015-01-12T11:24:04Z</time>
      </trkpt>
      <trkpt lat="47.14641" lon="5.55172">
        <ele>202</ele>
        <time>2015-01-12T11:24:08Z</time>
      </trkpt>
      <trkpt lat="47.14636" lon="5.55216">
        <ele>207</ele>
        <time>2015-01-12T11:24:32Z</time>
      </trkpt>
      <trkpt lat="47.14634" lon="5.55224">
        <ele>207</ele>
        <time>2015-01-12T11:24:37Z</time>
      </trkpt>
      <trkpt lat="47.14628" lon="5.55234">
        <ele>207</ele>
        <time>2015-01-12T11:24:47Z</time>
      </trkpt>
    </trkseg>
  </trk>
</gpx>